KLM867 EHAM-RJBB
Flight info
| Callsign | KLM867 |
|---|---|
| Flight time | N/A |
| Altitude | 27000 |
| Route | ARNEM L620 HMM DCT NOMKA DCT OMELO DCT PEPIK/N0483F290 DCT BUDOP DCT LUGEB DCT UDROS UM859 KARDE UN644 ROLIN DCT TAGAR/N0480F310 DCT BT DCT BARAD M747 SUBUT T916 BALUN/K0893F310 T916 MIHOS/K0891F330 T916 PIGAL M610 RULAD/K0887S1010 A343 POSOT B215 FKG W188 LIKMI W270 DKO/K0874S1070 W69 HUR B339 LADIX W34 VAPGU W100 MUDOT DCT UNSEK A326 DONVO G597 AGAVO/N0473F350 Y644 EGOBA Y697 LANAT Y597 MIHOU Y361 SAEKI/N0477F360 Y36 ATMUG |
| Aircraft | MD11/H-SDE1E2E3FGHIJ2J3J4J5M1RWXY/LB1D1 |
Departure
| Time | N/A |
|---|---|
| Airport | Amsterdam Airport Schiphol (EHAM) |
Arrival
| Time | 2026-04-30 01:20 |
|---|---|
| Airport | Kansai International Airport (RJBB) |
| Time | Latitude | Longitude | Altitude | Speed | Heading |
|---|---|---|---|---|---|
| 2026-04-29 14:39 | 45.79792 | 23.79392 | 29072 ft | 561 kts | 123° |
| 2026-04-29 14:40 | 45.75790 | 23.88958 | 29089 ft | 563 kts | 122° |
| 2026-04-29 14:40 | 45.71798 | 23.98663 | 29084 ft | 562 kts | 122° |
| 2026-04-29 14:41 | 45.67843 | 24.08291 | 29105 ft | 562 kts | 122° |
| 2026-04-29 14:41 | 45.63907 | 24.17885 | 29109 ft | 563 kts | 122° |
| 2026-04-29 14:42 | 45.59961 | 24.27539 | 29111 ft | 563 kts | 121° |
| 2026-04-29 14:42 | 45.56018 | 24.37202 | 29104 ft | 563 kts | 121° |
| 2026-04-29 14:43 | 45.52089 | 24.46866 | 29079 ft | 562 kts | 121° |
| 2026-04-29 14:43 | 45.48163 | 24.56509 | 29058 ft | 562 kts | 121° |
| 2026-04-29 14:44 | 45.44264 | 24.66156 | 29053 ft | 561 kts | 122° |
| 2026-04-29 14:44 | 45.40323 | 24.75706 | 29045 ft | 561 kts | 123° |
| 2026-04-29 14:45 | 45.36240 | 24.85169 | 29051 ft | 561 kts | 123° |
| 2026-04-29 14:45 | 45.32183 | 24.94587 | 29053 ft | 560 kts | 123° |
| 2026-04-29 14:46 | 45.28147 | 25.04072 | 29062 ft | 560 kts | 122° |
| 2026-04-29 14:46 | 45.24115 | 25.13538 | 29075 ft | 560 kts | 122° |
| 2026-04-29 14:47 | 45.20105 | 25.22991 | 29087 ft | 559 kts | 122° |
| 2026-04-29 14:47 | 45.16086 | 25.32460 | 29084 ft | 559 kts | 122° |
| 2026-04-29 14:48 | 45.12094 | 25.41903 | 29085 ft | 558 kts | 122° |
| 2026-04-29 14:48 | 45.08119 | 25.51324 | 29096 ft | 558 kts | 122° |
| 2026-04-29 14:49 | 45.04151 | 25.60748 | 29101 ft | 558 kts | 121° |
| 2026-04-29 14:49 | 45.00185 | 25.70192 | 29101 ft | 558 kts | 122° |
| 2026-04-29 14:50 | 44.96127 | 25.79570 | 29113 ft | 556 kts | 124° |
| 2026-04-29 14:50 | 44.91972 | 25.88808 | 29114 ft | 557 kts | 124° |
| 2026-04-29 14:51 | 44.87868 | 25.98048 | 29119 ft | 557 kts | 123° |
| 2026-04-29 14:51 | 44.83759 | 26.07366 | 29119 ft | 556 kts | 123° |
| 2026-04-29 14:52 | 44.79693 | 26.16589 | 29134 ft | 557 kts | 123° |
| 2026-04-29 14:52 | 44.75598 | 26.25910 | 29129 ft | 556 kts | 123° |
| 2026-04-29 14:53 | 44.71549 | 26.35118 | 29134 ft | 556 kts | 123° |
| 2026-04-29 14:53 | 44.67485 | 26.44413 | 29134 ft | 557 kts | 123° |
| 2026-04-29 14:54 | 44.63412 | 26.53721 | 29136 ft | 557 kts | 122° |
| 2026-04-29 14:54 | 44.59380 | 26.62980 | 29133 ft | 557 kts | 122° |
| 2026-04-29 14:55 | 44.55325 | 26.72264 | 29121 ft | 557 kts | 123° |
| 2026-04-29 14:55 | 44.51170 | 26.81387 | 29111 ft | 557 kts | 125° |
| 2026-04-29 14:56 | 44.46954 | 26.90474 | 29123 ft | 557 kts | 124° |
| 2026-04-29 14:56 | 44.43456 | 26.98112 | 29125 ft | 557 kts | 124° |
| 2026-04-29 14:57 | 44.38599 | 27.08744 | 29122 ft | 556 kts | 124° |
| 2026-04-29 14:57 | 44.34443 | 27.17870 | 29115 ft | 556 kts | 124° |
| 2026-04-29 14:58 | 44.30255 | 27.27067 | 29110 ft | 556 kts | 124° |
| 2026-04-29 14:58 | 44.26128 | 27.36175 | 29110 ft | 556 kts | 124° |
| 2026-04-29 14:59 | 44.22000 | 27.45259 | 29111 ft | 555 kts | 123° |
| 2026-04-29 14:59 | 44.19926 | 27.49858 | 29253 ft | 557 kts | 123° |
| 2026-04-29 14:59 | 44.17888 | 27.54368 | 29863 ft | 555 kts | 123° |
| 2026-04-29 14:59 | 44.15812 | 27.58946 | 30245 ft | 557 kts | 123° |
| 2026-04-29 15:00 | 44.13773 | 27.63470 | 30762 ft | 556 kts | 123° |
| 2026-04-29 15:00 | 44.11715 | 27.68043 | 31126 ft | 555 kts | 124° |
| 2026-04-29 15:00 | 44.09655 | 27.72565 | 31082 ft | 553 kts | 125° |
| 2026-04-29 15:01 | 44.05428 | 27.81468 | 31126 ft | 552 kts | 126° |
| 2026-04-29 15:01 | 44.01194 | 27.90379 | 31128 ft | 554 kts | 125° |
| 2026-04-29 15:02 | 43.97005 | 27.99320 | 31126 ft | 554 kts | 125° |
| 2026-04-29 15:02 | 43.92781 | 28.08292 | 31128 ft | 553 kts | 125° |
| 2026-04-29 15:03 | 43.88594 | 28.17238 | 31133 ft | 552 kts | 125° |
| 2026-04-29 15:03 | 43.84426 | 28.26146 | 31138 ft | 553 kts | 125° |
| 2026-04-29 15:04 | 43.80259 | 28.35067 | 31143 ft | 553 kts | 124° |
| 2026-04-29 15:04 | 43.76123 | 28.43948 | 31154 ft | 553 kts | 124° |
| 2026-04-29 15:05 | 43.72747 | 28.51555 | 31156 ft | 553 kts | 121° |
| 2026-04-29 15:05 | 43.68059 | 28.62104 | 31162 ft | 553 kts | 125° |
| 2026-04-29 15:06 | 43.63830 | 28.70962 | 31148 ft | 552 kts | 126° |
| 2026-04-29 15:06 | 43.59639 | 28.79744 | 31151 ft | 552 kts | 126° |
| 2026-04-29 15:07 | 43.55473 | 28.88613 | 31156 ft | 551 kts | 125° |
| 2026-04-29 15:07 | 43.51306 | 28.97472 | 31162 ft | 551 kts | 125° |
| 2026-04-29 15:08 | 43.47845 | 29.04851 | 31162 ft | 551 kts | 124° |
| 2026-04-29 15:08 | 43.43019 | 29.15170 | 31163 ft | 551 kts | 124° |
| 2026-04-29 15:09 | 43.38889 | 29.24014 | 31156 ft | 550 kts | 124° |
| 2026-04-29 15:09 | 43.34768 | 29.32843 | 31163 ft | 550 kts | 124° |
| 2026-04-29 15:10 | 43.30657 | 29.41687 | 31159 ft | 551 kts | 124° |
| 2026-04-29 15:10 | 43.26528 | 29.50562 | 31164 ft | 551 kts | 124° |
| 2026-04-29 15:11 | 43.22321 | 29.59353 | 31160 ft | 550 kts | 126° |
| 2026-04-29 15:11 | 43.18056 | 29.68000 | 31154 ft | 549 kts | 127° |
| 2026-04-29 15:12 | 43.13805 | 29.76713 | 31141 ft | 549 kts | 126° |
| 2026-04-29 15:12 | 43.09604 | 29.85361 | 31142 ft | 549 kts | 126° |
| 2026-04-29 15:13 | 43.05386 | 29.94056 | 31144 ft | 549 kts | 126° |
| 2026-04-29 15:13 | 43.01168 | 30.02779 | 31142 ft | 550 kts | 126° |
| 2026-04-29 15:14 | 42.96959 | 30.11473 | 31137 ft | 549 kts | 126° |
| 2026-04-29 15:14 | 42.92779 | 30.20154 | 31139 ft | 548 kts | 125° |
| 2026-04-29 15:15 | 42.88593 | 30.28842 | 31134 ft | 548 kts | 125° |
| 2026-04-29 15:15 | 42.84427 | 30.37494 | 31139 ft | 547 kts | 125° |
| 2026-04-29 15:16 | 42.80273 | 30.46155 | 31139 ft | 546 kts | 124° |
| 2026-04-29 15:16 | 42.76066 | 30.54764 | 31124 ft | 546 kts | 123° |
| 2026-04-29 15:16 | 42.74309 | 30.59327 | 31136 ft | 547 kts | 112° |
| 2026-04-29 15:17 | 42.73107 | 30.64224 | 31178 ft | 547 kts | 102° |
| 2026-04-29 15:17 | 42.72092 | 30.74416 | 31161 ft | 546 kts | 93° |
| 2026-04-29 15:18 | 42.71274 | 30.84712 | 31144 ft | 548 kts | 96° |
| 2026-04-29 15:18 | 42.70173 | 30.94937 | 31142 ft | 549 kts | 97° |
| 2026-04-29 15:19 | 42.69015 | 31.05136 | 31143 ft | 548 kts | 97° |
| 2026-04-29 15:19 | 42.67897 | 31.15371 | 31149 ft | 547 kts | 96° |
| 2026-04-29 15:20 | 42.66813 | 31.25628 | 31161 ft | 547 kts | 96° |
| 2026-04-29 15:20 | 42.65738 | 31.35794 | 31166 ft | 547 kts | 96° |
| 2026-04-29 15:21 | 42.64669 | 31.46036 | 31170 ft | 547 kts | 96° |
| 2026-04-29 15:21 | 42.63612 | 31.56251 | 31176 ft | 547 kts | 96° |
| 2026-04-29 15:22 | 42.62571 | 31.66435 | 31179 ft | 547 kts | 96° |
| 2026-04-29 15:22 | 42.61529 | 31.76624 | 31168 ft | 547 kts | 96° |
| 2026-04-29 15:23 | 42.60448 | 31.86832 | 31164 ft | 547 kts | 97° |
| 2026-04-29 15:23 | 42.59269 | 31.96985 | 31159 ft | 547 kts | 97° |
| 2026-04-29 15:24 | 42.58161 | 32.07127 | 31159 ft | 546 kts | 97° |
| 2026-04-29 15:24 | 42.56939 | 32.17352 | 31162 ft | 546 kts | 98° |
| 2026-04-29 15:25 | 42.55681 | 32.27435 | 31161 ft | 546 kts | 98° |
| 2026-04-29 15:25 | 42.54440 | 32.37618 | 31160 ft | 547 kts | 97° |
| 2026-04-29 15:26 | 42.53227 | 32.47755 | 31156 ft | 546 kts | 97° |
| 2026-04-29 15:26 | 42.52024 | 32.57851 | 31153 ft | 546 kts | 97° |
| 2026-04-29 15:27 | 42.50827 | 32.68036 | 31146 ft | 545 kts | 97° |
| 2026-04-29 15:27 | 42.49641 | 32.78146 | 31138 ft | 544 kts | 97° |
| 2026-04-29 15:28 | 42.48468 | 32.88261 | 31144 ft | 545 kts | 97° |
| 2026-04-29 15:28 | 42.47309 | 32.98317 | 31143 ft | 546 kts | 97° |
| 2026-04-29 15:29 | 42.46146 | 33.08467 | 31135 ft | 546 kts | 97° |
| 2026-04-29 15:30 | 42.43676 | 33.28737 | 31148 ft | 546 kts | 98° |
| 2026-04-29 15:30 | 42.42411 | 33.38811 | 31143 ft | 546 kts | 97° |
| 2026-04-29 15:31 | 42.41154 | 33.48894 | 31153 ft | 546 kts | 98° |
| 2026-04-29 15:31 | 42.39832 | 33.58944 | 31157 ft | 545 kts | 98° |
| 2026-04-29 15:32 | 42.38544 | 33.69056 | 31133 ft | 545 kts | 98° |
| 2026-04-29 15:32 | 42.37249 | 33.79105 | 31137 ft | 544 kts | 98° |
| 2026-04-29 15:33 | 42.35994 | 33.89193 | 31149 ft | 545 kts | 98° |
| 2026-04-29 15:33 | 42.34666 | 33.99274 | 31143 ft | 545 kts | 99° |
| 2026-04-29 15:34 | 42.33318 | 34.09260 | 31154 ft | 544 kts | 98° |
| 2026-04-29 15:34 | 42.31994 | 34.19292 | 31153 ft | 543 kts | 98° |
| 2026-04-29 15:35 | 42.30664 | 34.29337 | 31165 ft | 543 kts | 98° |
| 2026-04-29 15:35 | 42.29356 | 34.39380 | 31173 ft | 543 kts | 98° |
| 2026-04-29 15:36 | 42.27999 | 34.49410 | 31175 ft | 543 kts | 98° |
| 2026-04-29 15:36 | 42.26614 | 34.59361 | 31173 ft | 543 kts | 98° |
| 2026-04-29 15:37 | 42.25256 | 34.69411 | 31161 ft | 542 kts | 99° |
| 2026-04-29 15:37 | 42.23895 | 34.79353 | 31173 ft | 543 kts | 99° |
| 2026-04-29 15:38 | 42.22500 | 34.89344 | 31175 ft | 543 kts | 99° |
| 2026-04-29 15:38 | 42.21046 | 34.99324 | 31174 ft | 542 kts | 99° |
| 2026-04-29 15:39 | 42.19639 | 35.09266 | 31164 ft | 542 kts | 99° |
| 2026-04-29 15:39 | 42.18224 | 35.19203 | 31173 ft | 542 kts | 98° |
| 2026-04-29 15:40 | 42.16833 | 35.29185 | 31176 ft | 542 kts | 98° |
| 2026-04-29 15:40 | 42.15436 | 35.39113 | 31177 ft | 540 kts | 98° |
| 2026-04-29 15:41 | 42.14017 | 35.49025 | 31168 ft | 540 kts | 99° |
| 2026-04-29 15:41 | 42.12477 | 35.58902 | 31176 ft | 540 kts | 100° |
| 2026-04-29 15:42 | 42.10939 | 35.68798 | 31170 ft | 540 kts | 100° |
| 2026-04-29 15:42 | 42.09441 | 35.78612 | 31160 ft | 539 kts | 100° |
| 2026-04-29 15:43 | 42.07947 | 35.88487 | 31168 ft | 539 kts | 99° |
| 2026-04-29 15:43 | 42.06467 | 35.98334 | 31169 ft | 539 kts | 99° |
| 2026-04-29 15:44 | 42.04991 | 36.08193 | 31164 ft | 539 kts | 99° |
| 2026-04-29 15:44 | 42.03529 | 36.18052 | 31162 ft | 538 kts | 99° |
| 2026-04-29 15:45 | 42.02087 | 36.27819 | 31165 ft | 537 kts | 99° |
| 2026-04-29 15:45 | 42.00636 | 36.37688 | 31169 ft | 537 kts | 99° |
| 2026-04-29 15:46 | 41.99205 | 36.47502 | 31171 ft | 537 kts | 99° |
| 2026-04-29 15:46 | 41.97745 | 36.57310 | 31168 ft | 537 kts | 100° |
| 2026-04-29 15:47 | 41.96167 | 36.67049 | 31171 ft | 536 kts | 101° |
| 2026-04-29 15:47 | 41.94617 | 36.76862 | 31166 ft | 536 kts | 100° |
| 2026-04-29 15:48 | 41.93090 | 36.86623 | 31168 ft | 536 kts | 101° |
| 2026-04-29 15:48 | 41.91569 | 36.96352 | 31165 ft | 534 kts | 100° |
| 2026-04-29 15:49 | 41.90422 | 37.06153 | 31178 ft | 532 kts | 92° |
| 2026-04-29 15:49 | 41.90178 | 37.16012 | 31188 ft | 530 kts | 88° |
| 2026-04-29 15:50 | 41.90053 | 37.25848 | 31183 ft | 529 kts | 89° |
| 2026-04-29 15:50 | 41.89834 | 37.35624 | 31178 ft | 529 kts | 89° |
| 2026-04-29 15:51 | 41.89596 | 37.45443 | 31178 ft | 528 kts | 89° |
| 2026-04-29 15:51 | 41.89372 | 37.55252 | 31179 ft | 528 kts | 89° |
| 2026-04-29 15:52 | 41.89172 | 37.65049 | 31174 ft | 528 kts | 89° |
| 2026-04-29 15:52 | 41.88985 | 37.74889 | 31169 ft | 528 kts | 89° |
| 2026-04-29 15:53 | 41.88806 | 37.84724 | 31171 ft | 528 kts | 89° |
| 2026-04-29 15:53 | 41.88631 | 37.94530 | 31171 ft | 528 kts | 89° |
| 2026-04-29 15:54 | 41.88471 | 38.04277 | 31170 ft | 527 kts | 89° |
| 2026-04-29 15:54 | 41.88323 | 38.14091 | 31161 ft | 526 kts | 89° |
| 2026-04-29 15:55 | 41.88177 | 38.23902 | 31164 ft | 526 kts | 89° |
| 2026-04-29 15:55 | 41.87928 | 38.33634 | 31168 ft | 525 kts | 91° |
| 2026-04-29 15:56 | 41.87568 | 38.43415 | 31158 ft | 523 kts | 91° |
| 2026-04-29 15:56 | 41.87243 | 38.53103 | 31162 ft | 522 kts | 90° |
| 2026-04-29 15:57 | 41.86953 | 38.62785 | 31164 ft | 522 kts | 90° |
| 2026-04-29 15:57 | 41.86662 | 38.72515 | 31154 ft | 521 kts | 91° |
| 2026-04-29 15:58 | 41.86382 | 38.82199 | 31155 ft | 520 kts | 91° |
| 2026-04-29 15:58 | 41.86111 | 38.91861 | 31157 ft | 520 kts | 91° |
| 2026-04-29 15:59 | 41.85851 | 39.01487 | 31155 ft | 519 kts | 91° |
| 2026-04-29 15:59 | 41.85599 | 39.11112 | 31149 ft | 517 kts | 91° |
| 2026-04-29 16:00 | 41.85354 | 39.20730 | 31149 ft | 516 kts | 91° |
| 2026-04-29 16:00 | 41.85119 | 39.30319 | 31145 ft | 517 kts | 91° |
| 2026-04-29 16:01 | 41.84869 | 39.39943 | 31138 ft | 517 kts | 92° |
| 2026-04-29 16:01 | 41.84513 | 39.49528 | 31143 ft | 516 kts | 92° |
| 2026-04-29 16:02 | 41.84159 | 39.59126 | 31146 ft | 516 kts | 92° |
| 2026-04-29 16:02 | 41.83772 | 39.68656 | 31143 ft | 515 kts | 93° |
| 2026-04-29 16:03 | 41.83412 | 39.78171 | 31142 ft | 514 kts | 92° |
| 2026-04-29 16:03 | 41.83052 | 39.87764 | 31142 ft | 514 kts | 92° |
| 2026-04-29 16:04 | 41.82707 | 39.97310 | 31146 ft | 513 kts | 92° |
| 2026-04-29 16:04 | 41.82369 | 40.06777 | 31147 ft | 513 kts | 92° |
| 2026-04-29 16:05 | 41.82028 | 40.16331 | 31147 ft | 512 kts | 93° |
| 2026-04-29 16:05 | 41.81589 | 40.25817 | 31147 ft | 512 kts | 94° |
| 2026-04-29 16:06 | 41.81164 | 40.35348 | 31152 ft | 512 kts | 93° |
| 2026-04-29 16:06 | 41.80770 | 40.44832 | 31146 ft | 511 kts | 94° |
| 2026-04-29 16:07 | 41.80367 | 40.54295 | 31149 ft | 510 kts | 94° |
| 2026-04-29 16:07 | 41.80186 | 40.63767 | 31145 ft | 511 kts | 86° |
| 2026-04-29 16:08 | 41.81365 | 40.73023 | 31161 ft | 510 kts | 74° |
| 2026-04-29 16:08 | 41.83332 | 40.82109 | 31146 ft | 511 kts | 74° |
| 2026-04-29 16:09 | 41.85212 | 40.91311 | 31142 ft | 510 kts | 75° |
| 2026-04-29 16:09 | 41.87027 | 41.00483 | 31150 ft | 509 kts | 75° |
| 2026-04-29 16:10 | 41.88845 | 41.09643 | 31148 ft | 510 kts | 75° |
| 2026-04-29 16:10 | 41.90671 | 41.18746 | 31151 ft | 510 kts | 75° |
| 2026-04-29 16:11 | 41.92532 | 41.27945 | 31153 ft | 510 kts | 75° |
| 2026-04-29 16:11 | 41.94396 | 41.37121 | 31154 ft | 511 kts | 75° |
| 2026-04-29 16:12 | 41.96261 | 41.46271 | 31156 ft | 511 kts | 75° |
| 2026-04-29 16:12 | 41.98139 | 41.55451 | 31147 ft | 511 kts | 74° |
| 2026-04-29 16:13 | 42.00038 | 41.64658 | 31148 ft | 510 kts | 74° |
| 2026-04-29 16:13 | 42.01919 | 41.73748 | 31148 ft | 510 kts | 75° |
| 2026-04-29 16:14 | 42.03822 | 41.82912 | 31148 ft | 510 kts | 75° |
| 2026-04-29 16:14 | 42.05593 | 41.92156 | 31152 ft | 510 kts | 77° |
| 2026-04-29 16:15 | 42.07304 | 42.01407 | 31155 ft | 510 kts | 76° |
| 2026-04-29 16:15 | 42.09038 | 42.10615 | 31153 ft | 511 kts | 76° |
| 2026-04-29 16:16 | 42.10806 | 42.19875 | 31144 ft | 511 kts | 76° |
| 2026-04-29 16:16 | 42.12565 | 42.29056 | 31140 ft | 511 kts | 76° |
| 2026-04-29 16:17 | 42.14337 | 42.38278 | 31134 ft | 510 kts | 76° |
| 2026-04-29 16:17 | 42.16121 | 42.47526 | 31150 ft | 511 kts | 76° |
| 2026-04-29 16:18 | 42.17900 | 42.56712 | 31155 ft | 510 kts | 76° |
| 2026-04-29 16:18 | 42.19701 | 42.65947 | 31148 ft | 510 kts | 76° |
| 2026-04-29 16:19 | 42.21477 | 42.75034 | 31141 ft | 510 kts | 76° |
| 2026-04-29 16:19 | 42.23295 | 42.84276 | 31139 ft | 510 kts | 76° |
| 2026-04-29 16:20 | 42.25098 | 42.93509 | 31138 ft | 510 kts | 77° |
| 2026-04-29 16:20 | 42.26428 | 43.02886 | 31138 ft | 507 kts | 89° |
| 2026-04-29 16:21 | 42.25668 | 43.12216 | 31154 ft | 500 kts | 109° |
| 2026-04-29 16:21 | 42.22722 | 43.20539 | 31153 ft | 491 kts | 128° |
| 2026-04-29 16:22 | 42.18666 | 43.27956 | 31130 ft | 491 kts | 128° |
| 2026-04-29 16:22 | 42.14914 | 43.35641 | 31123 ft | 492 kts | 124° |
| 2026-04-29 16:23 | 42.11386 | 43.43480 | 31112 ft | 491 kts | 124° |
| 2026-04-29 16:23 | 42.07828 | 43.51341 | 31110 ft | 491 kts | 124° |
| 2026-04-29 16:24 | 42.04274 | 43.59177 | 31099 ft | 492 kts | 124° |
| 2026-04-29 16:24 | 42.00710 | 43.67054 | 31100 ft | 493 kts | 124° |
| 2026-04-29 16:25 | 41.97203 | 43.74840 | 31094 ft | 492 kts | 124° |
| 2026-04-29 16:25 | 41.93648 | 43.82741 | 31090 ft | 492 kts | 124° |
| 2026-04-29 16:26 | 41.90140 | 43.90557 | 31086 ft | 492 kts | 124° |
| 2026-04-29 16:26 | 41.86618 | 43.98413 | 31078 ft | 492 kts | 124° |
| 2026-04-29 16:27 | 41.83110 | 44.06246 | 31079 ft | 491 kts | 124° |
| 2026-04-29 16:27 | 41.79615 | 44.14062 | 31071 ft | 490 kts | 124° |
| 2026-04-29 16:28 | 41.75996 | 44.21804 | 31075 ft | 490 kts | 125° |
| 2026-04-29 16:28 | 41.72354 | 44.29507 | 31070 ft | 491 kts | 125° |
| 2026-04-29 16:29 | 41.68731 | 44.37258 | 31074 ft | 492 kts | 125° |
| 2026-04-29 16:29 | 41.65104 | 44.45025 | 31074 ft | 493 kts | 125° |
| 2026-04-29 16:30 | 41.61472 | 44.52824 | 31074 ft | 493 kts | 124° |
| 2026-04-29 16:30 | 41.57862 | 44.60582 | 31073 ft | 492 kts | 124° |
| 2026-04-29 16:31 | 41.54271 | 44.68317 | 31069 ft | 492 kts | 125° |
| 2026-04-29 16:31 | 41.50695 | 44.76023 | 31068 ft | 491 kts | 125° |
| 2026-04-29 16:32 | 41.47104 | 44.83783 | 31066 ft | 491 kts | 125° |
| 2026-04-29 16:32 | 41.43550 | 44.91464 | 31066 ft | 491 kts | 125° |
| 2026-04-29 16:33 | 41.38178 | 45.03124 | 31066 ft | 492 kts | 124° |
| 2026-04-29 16:33 | 41.35136 | 45.11269 | 31075 ft | 496 kts | 114° |
| 2026-04-29 16:34 | 41.32862 | 45.19944 | 31078 ft | 498 kts | 111° |
| 2026-04-29 16:34 | 41.30652 | 45.28672 | 31073 ft | 498 kts | 111° |
| 2026-04-29 16:35 | 41.28397 | 45.37336 | 31075 ft | 497 kts | 111° |
| 2026-04-29 16:35 | 41.26126 | 45.46018 | 31075 ft | 497 kts | 111° |
| 2026-04-29 16:36 | 41.23872 | 45.54708 | 31075 ft | 497 kts | 111° |
| 2026-04-29 16:36 | 41.21649 | 45.63376 | 31075 ft | 497 kts | 111° |
| 2026-04-29 16:37 | 41.19413 | 45.71889 | 31069 ft | 495 kts | 112° |
| 2026-04-29 16:37 | 41.17473 | 45.79048 | 31069 ft | 495 kts | 112° |
| 2026-04-29 16:38 | 41.14775 | 45.89120 | 31071 ft | 496 kts | 112° |
| 2026-04-29 16:38 | 41.12480 | 45.97754 | 31070 ft | 496 kts | 112° |
| 2026-04-29 16:39 | 41.10206 | 46.06324 | 31072 ft | 496 kts | 111° |
| 2026-04-29 16:39 | 41.07923 | 46.14971 | 31070 ft | 496 kts | 111° |
| 2026-04-29 16:40 | 41.05650 | 46.23574 | 31071 ft | 495 kts | 111° |
| 2026-04-29 16:40 | 41.03379 | 46.32204 | 31071 ft | 494 kts | 111° |
| 2026-04-29 16:41 | 41.01059 | 46.40696 | 31073 ft | 493 kts | 112° |
| 2026-04-29 16:41 | 40.98752 | 46.49226 | 31075 ft | 493 kts | 111° |
| 2026-04-29 16:42 | 40.96447 | 46.57804 | 31066 ft | 493 kts | 111° |
| 2026-04-29 16:42 | 40.94156 | 46.66323 | 31074 ft | 493 kts | 111° |
| 2026-04-29 16:43 | 40.91886 | 46.74829 | 31073 ft | 493 kts | 111° |
| 2026-04-29 16:43 | 40.90573 | 46.83663 | 31093 ft | 497 kts | 92° |
| 2026-04-29 16:44 | 40.91530 | 46.92734 | 31100 ft | 499 kts | 75° |
| 2026-04-29 16:44 | 40.93413 | 47.01577 | 31079 ft | 500 kts | 76° |
| 2026-04-29 16:45 | 40.95041 | 47.10241 | 31077 ft | 500 kts | 78° |
| 2026-04-29 16:45 | 40.96608 | 47.19200 | 31072 ft | 500 kts | 78° |
| 2026-04-29 16:46 | 40.98184 | 47.28177 | 31073 ft | 499 kts | 77° |
| 2026-04-29 16:46 | 40.99778 | 47.37106 | 31075 ft | 499 kts | 77° |
| 2026-04-29 16:47 | 41.01380 | 47.45997 | 31074 ft | 499 kts | 77° |
| 2026-04-29 16:47 | 41.02994 | 47.54922 | 31082 ft | 499 kts | 77° |
| 2026-04-29 16:48 | 41.04615 | 47.63845 | 31083 ft | 499 kts | 77° |
| 2026-04-29 16:48 | 41.06250 | 47.72787 | 31081 ft | 500 kts | 77° |
| 2026-04-29 16:49 | 41.07901 | 47.81759 | 31078 ft | 500 kts | 77° |
| 2026-04-29 16:49 | 41.09539 | 47.90667 | 31072 ft | 499 kts | 77° |
| 2026-04-29 16:50 | 41.11425 | 47.99524 | 31076 ft | 500 kts | 72° |
| 2026-04-29 16:50 | 41.13757 | 48.08196 | 31077 ft | 499 kts | 70° |
| 2026-04-29 16:51 | 41.16135 | 48.16855 | 31078 ft | 499 kts | 71° |
| 2026-04-29 16:51 | 41.18469 | 48.25460 | 31086 ft | 500 kts | 71° |
| 2026-04-29 16:52 | 41.20820 | 48.34149 | 31085 ft | 500 kts | 71° |
| 2026-04-29 16:52 | 41.23197 | 48.42876 | 31083 ft | 500 kts | 71° |
| 2026-04-29 16:53 | 41.25559 | 48.51515 | 31085 ft | 500 kts | 71° |
| 2026-04-29 16:53 | 41.27938 | 48.60193 | 31093 ft | 500 kts | 70° |
| 2026-04-29 16:54 | 41.30325 | 48.68869 | 31099 ft | 500 kts | 71° |
| 2026-04-29 16:54 | 41.32718 | 48.77527 | 31107 ft | 500 kts | 71° |
| 2026-04-29 16:55 | 41.35126 | 48.86213 | 31114 ft | 500 kts | 71° |
| 2026-04-29 16:55 | 41.37496 | 48.94882 | 31123 ft | 500 kts | 72° |
| 2026-04-29 16:56 | 41.39755 | 49.03661 | 31129 ft | 500 kts | 72° |
| 2026-04-29 16:56 | 41.42000 | 49.12396 | 31136 ft | 501 kts | 72° |
| 2026-04-29 16:57 | 41.44270 | 49.21128 | 31140 ft | 501 kts | 72° |
| 2026-04-29 16:57 | 41.46562 | 49.29874 | 31132 ft | 501 kts | 72° |
| 2026-04-29 16:58 | 41.48861 | 49.38629 | 31138 ft | 500 kts | 72° |
| 2026-04-29 16:58 | 41.51152 | 49.47370 | 31141 ft | 501 kts | 71° |
| 2026-04-29 16:59 | 41.53455 | 49.56115 | 31140 ft | 502 kts | 71° |
| 2026-04-29 16:59 | 41.55774 | 49.64879 | 31138 ft | 502 kts | 71° |
| 2026-04-29 17:00 | 41.58107 | 49.73674 | 31135 ft | 501 kts | 72° |
| 2026-04-29 17:00 | 41.60444 | 49.82446 | 31135 ft | 502 kts | 72° |
| 2026-04-29 17:01 | 41.62738 | 49.91042 | 31132 ft | 502 kts | 72° |
| 2026-04-29 17:01 | 41.65034 | 49.99807 | 31126 ft | 501 kts | 73° |
| 2026-04-29 17:02 | 41.67217 | 50.08683 | 31122 ft | 502 kts | 73° |
| 2026-04-29 17:02 | 41.69388 | 50.17502 | 31112 ft | 502 kts | 73° |
| 2026-04-29 17:03 | 41.71590 | 50.26354 | 31110 ft | 501 kts | 73° |
| 2026-04-29 17:03 | 41.73800 | 50.35180 | 31106 ft | 501 kts | 72° |
| 2026-04-29 17:04 | 41.76003 | 50.43963 | 31096 ft | 501 kts | 72° |
| 2026-04-29 17:04 | 41.78228 | 50.52810 | 31092 ft | 501 kts | 72° |
| 2026-04-29 17:05 | 41.80451 | 50.61620 | 31084 ft | 500 kts | 72° |
| 2026-04-29 17:05 | 41.82681 | 50.70433 | 31082 ft | 500 kts | 73° |
| 2026-04-29 17:06 | 41.84916 | 50.79219 | 31084 ft | 500 kts | 73° |
| 2026-04-29 17:06 | 41.87154 | 50.88003 | 31103 ft | 500 kts | 73° |
| 2026-04-29 17:07 | 41.89032 | 50.95342 | 31097 ft | 500 kts | 73° |
| 2026-04-29 17:07 | 41.91616 | 51.05596 | 31082 ft | 500 kts | 73° |
| 2026-04-29 17:08 | 41.93745 | 51.14471 | 31071 ft | 500 kts | 73° |
| 2026-04-29 17:08 | 41.95903 | 51.23322 | 31053 ft | 500 kts | 73° |
| 2026-04-29 17:09 | 41.98067 | 51.32175 | 31041 ft | 501 kts | 73° |
| 2026-04-29 17:09 | 42.00269 | 51.41033 | 31035 ft | 501 kts | 71° |
| 2026-04-29 17:10 | 42.03281 | 51.49471 | 31033 ft | 503 kts | 60° |
| 2026-04-29 17:10 | 42.07084 | 51.57371 | 31027 ft | 505 kts | 58° |
| 2026-04-29 17:11 | 42.10898 | 51.65273 | 31012 ft | 505 kts | 59° |
| 2026-04-29 17:11 | 42.14675 | 51.73261 | 31001 ft | 506 kts | 59° |
| 2026-04-29 17:12 | 42.18430 | 51.81232 | 31005 ft | 507 kts | 59° |
| 2026-04-29 17:12 | 42.20944 | 51.86548 | 31003 ft | 507 kts | 59° |
| 2026-04-29 17:13 | 42.26004 | 51.97201 | 30992 ft | 507 kts | 59° |
| 2026-04-29 17:13 | 42.29817 | 52.05207 | 30997 ft | 506 kts | 59° |
| 2026-04-29 17:14 | 42.33618 | 52.13177 | 31000 ft | 506 kts | 59° |
| 2026-04-29 17:14 | 42.37411 | 52.21123 | 31007 ft | 506 kts | 59° |
| 2026-04-29 17:15 | 42.41225 | 52.29097 | 31007 ft | 505 kts | 59° |
| 2026-04-29 17:15 | 42.45054 | 52.37075 | 31007 ft | 506 kts | 59° |
| 2026-04-29 17:16 | 42.48885 | 52.45050 | 31006 ft | 506 kts | 59° |
| 2026-04-29 17:16 | 42.52660 | 52.53033 | 31004 ft | 505 kts | 60° |
| 2026-04-29 17:17 | 42.56358 | 52.61145 | 31000 ft | 504 kts | 60° |
| 2026-04-29 17:17 | 42.60061 | 52.69258 | 31004 ft | 504 kts | 61° |
| 2026-04-29 17:18 | 42.63756 | 52.77301 | 30999 ft | 503 kts | 61° |
| 2026-04-29 17:18 | 42.67457 | 52.85339 | 31001 ft | 503 kts | 61° |
| 2026-04-29 17:19 | 42.71180 | 52.93414 | 30995 ft | 503 kts | 61° |
| 2026-04-29 17:19 | 42.74906 | 53.01478 | 30995 ft | 503 kts | 60° |
| 2026-04-29 17:20 | 42.78628 | 53.09527 | 30994 ft | 502 kts | 60° |
| 2026-04-29 17:20 | 42.82359 | 53.17580 | 30996 ft | 504 kts | 60° |
| 2026-04-29 17:21 | 42.86102 | 53.25637 | 30995 ft | 504 kts | 60° |
| 2026-04-29 17:21 | 42.89848 | 53.33700 | 30994 ft | 504 kts | 60° |
| 2026-04-29 17:22 | 42.93615 | 53.41777 | 30991 ft | 504 kts | 60° |
| 2026-04-29 17:22 | 42.97313 | 53.49851 | 30996 ft | 504 kts | 62° |
| 2026-04-29 17:23 | 43.00687 | 53.58220 | 30992 ft | 499 kts | 72° |
| 2026-04-29 17:23 | 43.02271 | 53.67272 | 31010 ft | 488 kts | 89° |
| 2026-04-29 17:24 | 43.02721 | 53.76460 | 30989 ft | 485 kts | 92° |
| 2026-04-29 17:24 | 43.03131 | 53.85683 | 30991 ft | 486 kts | 91° |
| 2026-04-29 17:25 | 43.03685 | 53.94884 | 30985 ft | 487 kts | 90° |
| 2026-04-29 17:25 | 43.04243 | 54.04086 | 30983 ft | 487 kts | 90° |
| 2026-04-29 17:26 | 43.04804 | 54.13294 | 30977 ft | 489 kts | 90° |
| 2026-04-29 17:26 | 43.05388 | 54.22555 | 30969 ft | 489 kts | 90° |
| 2026-04-29 17:27 | 43.05972 | 54.31816 | 30959 ft | 489 kts | 89° |
| 2026-04-29 17:27 | 43.06566 | 54.41074 | 30958 ft | 488 kts | 89° |
| 2026-04-29 17:28 | 43.07165 | 54.50278 | 30953 ft | 488 kts | 89° |
| 2026-04-29 17:28 | 43.07770 | 54.59477 | 30955 ft | 489 kts | 89° |
| 2026-04-29 17:29 | 43.08388 | 54.68750 | 30957 ft | 489 kts | 90° |
| 2026-04-29 17:29 | 43.08909 | 54.76463 | 30954 ft | 489 kts | 90° |
| 2026-04-29 17:30 | 43.09561 | 54.87300 | 30962 ft | 489 kts | 91° |
| 2026-04-29 17:30 | 43.09990 | 54.96542 | 30957 ft | 489 kts | 91° |
| 2026-04-29 17:31 | 43.10437 | 55.05859 | 30952 ft | 488 kts | 91° |
| 2026-04-29 17:31 | 43.10899 | 55.15062 | 30956 ft | 487 kts | 91° |
| 2026-04-29 17:32 | 43.11374 | 55.24311 | 30958 ft | 488 kts | 90° |
| 2026-04-29 17:32 | 43.11857 | 55.33561 | 30953 ft | 487 kts | 90° |
| 2026-04-29 17:33 | 43.12344 | 55.42742 | 30952 ft | 486 kts | 90° |
| 2026-04-29 17:33 | 43.12838 | 55.51968 | 30950 ft | 487 kts | 90° |
| 2026-04-29 17:34 | 43.13344 | 55.61175 | 30947 ft | 486 kts | 89° |
| 2026-04-29 17:34 | 43.13860 | 55.70438 | 30949 ft | 486 kts | 90° |
| 2026-04-29 17:35 | 43.14639 | 55.84232 | 30940 ft | 484 kts | 90° |
| 2026-04-29 17:36 | 43.15175 | 55.93373 | 30939 ft | 484 kts | 89° |
| 2026-04-29 17:36 | 43.16246 | 56.02506 | 30950 ft | 489 kts | 80° |
| 2026-04-29 17:37 | 43.18073 | 56.11532 | 30953 ft | 492 kts | 78° |
| 2026-04-29 17:37 | 43.19949 | 56.20520 | 30957 ft | 493 kts | 78° |
| 2026-04-29 17:38 | 43.21782 | 56.29610 | 30946 ft | 494 kts | 78° |
| 2026-04-29 17:38 | 43.23606 | 56.38674 | 30961 ft | 495 kts | 78° |
| 2026-04-29 17:39 | 43.25449 | 56.47790 | 30952 ft | 498 kts | 78° |
| 2026-04-29 17:39 | 43.27303 | 56.56893 | 30956 ft | 499 kts | 78° |
| 2026-04-29 17:40 | 43.29182 | 56.66040 | 30944 ft | 498 kts | 78° |
| 2026-04-29 17:40 | 43.31066 | 56.75194 | 30956 ft | 500 kts | 78° |
| 2026-04-29 17:41 | 43.32955 | 56.84355 | 30945 ft | 501 kts | 78° |
| 2026-04-29 17:41 | 43.34882 | 56.93612 | 30946 ft | 501 kts | 78° |
| 2026-04-29 17:42 | 43.36797 | 57.02806 | 30956 ft | 503 kts | 77° |
| 2026-04-29 17:42 | 43.38744 | 57.12035 | 30952 ft | 504 kts | 77° |
| 2026-04-29 17:43 | 43.40669 | 57.21310 | 30954 ft | 504 kts | 78° |
| 2026-04-29 17:43 | 43.42439 | 57.30592 | 30955 ft | 503 kts | 79° |
| 2026-04-29 17:44 | 43.44200 | 57.39917 | 30950 ft | 504 kts | 78° |
| 2026-04-29 17:44 | 43.45977 | 57.49218 | 30946 ft | 504 kts | 78° |
| 2026-04-29 17:45 | 43.47777 | 57.58539 | 30943 ft | 504 kts | 78° |
| 2026-04-29 17:45 | 43.49584 | 57.67852 | 30941 ft | 504 kts | 78° |
| 2026-04-29 17:46 | 43.51394 | 57.77158 | 30940 ft | 504 kts | 78° |
| 2026-04-29 17:46 | 43.53220 | 57.86512 | 30935 ft | 505 kts | 78° |
| 2026-04-29 17:47 | 43.55054 | 57.95858 | 30937 ft | 506 kts | 78° |
| 2026-04-29 17:47 | 43.56897 | 58.05183 | 30930 ft | 506 kts | 77° |
| 2026-04-29 17:48 | 43.58746 | 58.14560 | 30924 ft | 506 kts | 77° |
| 2026-04-29 17:48 | 43.60609 | 58.23862 | 30919 ft | 504 kts | 77° |
| 2026-04-29 17:49 | 43.62430 | 58.33184 | 30911 ft | 504 kts | 78° |
| 2026-04-29 17:49 | 43.64142 | 58.42542 | 30908 ft | 503 kts | 78° |
| 2026-04-29 17:50 | 43.65805 | 58.51938 | 30902 ft | 503 kts | 78° |
| 2026-04-29 17:50 | 43.67504 | 58.61366 | 30898 ft | 504 kts | 78° |
| 2026-04-29 17:51 | 43.69194 | 58.70707 | 30893 ft | 503 kts | 78° |
| 2026-04-29 17:51 | 43.70901 | 58.80056 | 30890 ft | 503 kts | 78° |
| 2026-04-29 17:52 | 43.72613 | 58.89446 | 30892 ft | 503 kts | 78° |
| 2026-04-29 17:52 | 43.74340 | 58.98806 | 30891 ft | 502 kts | 77° |
| 2026-04-29 17:53 | 43.76044 | 59.08116 | 30885 ft | 501 kts | 78° |
| 2026-04-29 17:53 | 43.77708 | 59.17496 | 30888 ft | 501 kts | 78° |
| 2026-04-29 17:54 | 43.79381 | 59.26887 | 30891 ft | 502 kts | 78° |
| 2026-04-29 17:54 | 43.81053 | 59.36199 | 30888 ft | 502 kts | 77° |
| 2026-04-29 17:55 | 43.82757 | 59.45604 | 30891 ft | 503 kts | 77° |
| 2026-04-29 17:55 | 43.84459 | 59.54981 | 30890 ft | 503 kts | 77° |
| 2026-04-29 17:56 | 43.86177 | 59.64378 | 30891 ft | 503 kts | 77° |
| 2026-04-29 17:56 | 43.87867 | 59.73723 | 30896 ft | 502 kts | 78° |
| 2026-04-29 17:57 | 43.89408 | 59.83191 | 30894 ft | 502 kts | 79° |
| 2026-04-29 17:57 | 43.90908 | 59.92567 | 30892 ft | 502 kts | 79° |
| 2026-04-29 17:58 | 43.92453 | 60.02021 | 30891 ft | 502 kts | 78° |
| 2026-04-29 17:58 | 43.94015 | 60.11459 | 30906 ft | 504 kts | 78° |
| 2026-04-29 17:58 | 43.94809 | 60.16228 | 31329 ft | 505 kts | 78° |
| 2026-04-29 17:59 | 43.95593 | 60.20924 | 31842 ft | 505 kts | 78° |
| 2026-04-29 17:59 | 43.96379 | 60.25637 | 32324 ft | 505 kts | 78° |
| 2026-04-29 17:59 | 43.97174 | 60.30403 | 32820 ft | 504 kts | 78° |
| 2026-04-29 18:00 | 43.98755 | 60.39846 | 32865 ft | 498 kts | 78° |
| 2026-04-29 18:00 | 44.00323 | 60.49175 | 32922 ft | 499 kts | 78° |
| 2026-04-29 18:01 | 44.01920 | 60.58567 | 32926 ft | 501 kts | 78° |
| 2026-04-29 18:01 | 44.03510 | 60.67914 | 32920 ft | 500 kts | 78° |
| 2026-04-29 18:02 | 44.05121 | 60.77295 | 32921 ft | 499 kts | 78° |
| 2026-04-29 18:02 | 44.06714 | 60.86696 | 32922 ft | 499 kts | 79° |
| 2026-04-29 18:03 | 44.08188 | 60.96131 | 32938 ft | 500 kts | 79° |
| 2026-04-29 18:03 | 44.09668 | 61.05532 | 32941 ft | 501 kts | 78° |
| 2026-04-29 18:04 | 44.11193 | 61.14959 | 32945 ft | 501 kts | 79° |
| 2026-04-29 18:04 | 44.12702 | 61.24420 | 32948 ft | 501 kts | 78° |
| 2026-04-29 18:05 | 44.14046 | 61.33894 | 32951 ft | 500 kts | 83° |
| 2026-04-29 18:05 | 44.14665 | 61.43493 | 32954 ft | 499 kts | 88° |
| 2026-04-29 18:06 | 44.15013 | 61.53149 | 32952 ft | 499 kts | 88° |
| 2026-04-29 18:06 | 44.15427 | 61.62747 | 32952 ft | 499 kts | 87° |
| 2026-04-29 18:07 | 44.15795 | 61.72424 | 32947 ft | 499 kts | 88° |
| 2026-04-29 18:07 | 44.16162 | 61.82034 | 32942 ft | 498 kts | 88° |
| 2026-04-29 18:08 | 44.16545 | 61.91608 | 32943 ft | 498 kts | 88° |
| 2026-04-29 18:08 | 44.16933 | 62.01273 | 32940 ft | 498 kts | 87° |
| 2026-04-29 18:09 | 44.17332 | 62.10901 | 32940 ft | 498 kts | 87° |
| 2026-04-29 18:09 | 44.17734 | 62.20486 | 32942 ft | 499 kts | 86° |
| 2026-04-29 18:10 | 44.18155 | 62.30162 | 32945 ft | 498 kts | 86° |
| 2026-04-29 18:10 | 44.18474 | 62.39775 | 32941 ft | 498 kts | 88° |
| 2026-04-29 18:11 | 44.18727 | 62.49414 | 32944 ft | 498 kts | 88° |
| 2026-04-29 18:11 | 44.19001 | 62.59010 | 32945 ft | 498 kts | 87° |
| 2026-04-29 18:12 | 44.19294 | 62.68584 | 32945 ft | 497 kts | 88° |
| 2026-04-29 18:12 | 44.19600 | 62.78219 | 32942 ft | 496 kts | 87° |
| 2026-04-29 18:13 | 44.19911 | 62.87749 | 32943 ft | 495 kts | 87° |
| 2026-04-29 18:13 | 44.20231 | 62.97299 | 32942 ft | 495 kts | 87° |
| 2026-04-29 18:14 | 44.20560 | 63.06880 | 32943 ft | 495 kts | 86° |
| 2026-04-29 18:14 | 44.20896 | 63.16457 | 32943 ft | 495 kts | 86° |
| 2026-04-29 18:15 | 44.21070 | 63.26003 | 32944 ft | 495 kts | 89° |
| 2026-04-29 18:15 | 44.21063 | 63.35572 | 32943 ft | 495 kts | 89° |
| 2026-04-29 18:16 | 44.21101 | 63.45101 | 32941 ft | 494 kts | 88° |
| 2026-04-29 18:16 | 44.21182 | 63.54685 | 32945 ft | 494 kts | 88° |
| 2026-04-29 18:17 | 44.21257 | 63.64226 | 32947 ft | 493 kts | 88° |
| 2026-04-29 18:17 | 44.21352 | 63.73738 | 32944 ft | 493 kts | 88° |
| 2026-04-29 18:18 | 44.21444 | 63.83322 | 32945 ft | 493 kts | 88° |
| 2026-04-29 18:18 | 44.21556 | 63.92835 | 32946 ft | 493 kts | 88° |
| 2026-04-29 18:19 | 44.21664 | 64.02316 | 32939 ft | 491 kts | 88° |
| 2026-04-29 18:19 | 44.21790 | 64.11837 | 32936 ft | 490 kts | 88° |
| 2026-04-29 18:20 | 44.21965 | 64.21281 | 32924 ft | 490 kts | 85° |
| 2026-04-29 18:20 | 44.22459 | 64.30709 | 32928 ft | 490 kts | 85° |
| 2026-04-29 18:21 | 44.22883 | 64.40218 | 32926 ft | 490 kts | 85° |
| 2026-04-29 18:21 | 44.23275 | 64.49668 | 32928 ft | 490 kts | 85° |
| 2026-04-29 18:22 | 44.23679 | 64.59137 | 32921 ft | 489 kts | 85° |
| 2026-04-29 18:22 | 44.24101 | 64.68565 | 32914 ft | 487 kts | 85° |
| 2026-04-29 18:23 | 44.24534 | 64.77938 | 32920 ft | 487 kts | 85° |
| 2026-04-29 18:23 | 44.24945 | 64.87402 | 32913 ft | 487 kts | 86° |
| 2026-04-29 18:24 | 44.25211 | 64.96767 | 32909 ft | 486 kts | 87° |
| 2026-04-29 18:24 | 44.25470 | 65.06174 | 32913 ft | 486 kts | 86° |
| 2026-04-29 18:25 | 44.25750 | 65.15612 | 32921 ft | 487 kts | 86° |
| 2026-04-29 18:25 | 44.26045 | 65.25061 | 32920 ft | 487 kts | 86° |
| 2026-04-29 18:26 | 44.26349 | 65.34480 | 32922 ft | 488 kts | 86° |
| 2026-04-29 18:26 | 44.26657 | 65.43897 | 32917 ft | 489 kts | 86° |
| 2026-04-29 18:27 | 44.26974 | 65.53367 | 32928 ft | 490 kts | 87° |
| 2026-04-29 18:27 | 44.27302 | 65.62905 | 32919 ft | 489 kts | 87° |
| 2026-04-29 18:28 | 44.27636 | 65.72327 | 32930 ft | 489 kts | 88° |
| 2026-04-29 18:28 | 44.27986 | 65.81746 | 32928 ft | 488 kts | 88° |
| 2026-04-29 18:29 | 44.28331 | 65.91234 | 32921 ft | 487 kts | 88° |
| 2026-04-29 18:29 | 44.28695 | 66.00633 | 32926 ft | 487 kts | 88° |
| 2026-04-29 18:30 | 44.28925 | 66.10052 | 32938 ft | 487 kts | 89° |
| 2026-04-29 18:30 | 44.29136 | 66.19452 | 32937 ft | 487 kts | 88° |
| 2026-04-29 18:31 | 44.29404 | 66.28886 | 32939 ft | 488 kts | 89° |
| 2026-04-29 18:31 | 44.29648 | 66.38378 | 32942 ft | 488 kts | 88° |
| 2026-04-29 18:32 | 44.29870 | 66.47781 | 32941 ft | 488 kts | 90° |
| 2026-04-29 18:32 | 44.29797 | 66.61996 | 32938 ft | 488 kts | 91° |
| 2026-04-29 18:33 | 44.29791 | 66.71429 | 32939 ft | 488 kts | 91° |
| 2026-04-29 18:33 | 44.29819 | 66.80877 | 32940 ft | 488 kts | 91° |
| 2026-04-29 18:34 | 44.29834 | 66.87218 | 32941 ft | 489 kts | 91° |
| 2026-04-29 18:34 | 44.29884 | 66.99828 | 32944 ft | 489 kts | 91° |
| 2026-04-29 18:35 | 44.29927 | 67.09317 | 32940 ft | 489 kts | 91° |
| 2026-04-29 18:35 | 44.29986 | 67.18763 | 32936 ft | 489 kts | 90° |
| 2026-04-29 18:36 | 44.30045 | 67.28240 | 32934 ft | 490 kts | 90° |
| 2026-04-29 18:36 | 44.30119 | 67.37762 | 32943 ft | 490 kts | 90° |
| 2026-04-29 18:37 | 44.30170 | 67.47272 | 32940 ft | 490 kts | 92° |
| 2026-04-29 18:37 | 44.29369 | 67.56635 | 32971 ft | 488 kts | 104° |
| 2026-04-29 18:38 | 44.27461 | 67.65717 | 32982 ft | 487 kts | 110° |
| 2026-04-29 18:38 | 44.25373 | 67.74636 | 32995 ft | 488 kts | 109° |
| 2026-04-29 18:39 | 44.23359 | 67.83684 | 33003 ft | 488 kts | 109° |
| 2026-04-29 18:39 | 44.21382 | 67.92710 | 33001 ft | 488 kts | 108° |
| 2026-04-29 18:40 | 44.19376 | 68.01770 | 32998 ft | 489 kts | 108° |
| 2026-04-29 18:40 | 44.17390 | 68.10847 | 32990 ft | 490 kts | 108° |
| 2026-04-29 18:41 | 44.13411 | 68.28975 | 32986 ft | 490 kts | 109° |
| 2026-04-29 18:42 | 44.11303 | 68.37981 | 32977 ft | 490 kts | 109° |
| 2026-04-29 18:42 | 44.09224 | 68.46973 | 32972 ft | 491 kts | 109° |
| 2026-04-29 18:43 | 44.07156 | 68.56039 | 32969 ft | 491 kts | 109° |
| 2026-04-29 18:43 | 44.05090 | 68.65056 | 32960 ft | 493 kts | 109° |
| 2026-04-29 18:44 | 44.03033 | 68.74143 | 32956 ft | 494 kts | 110° |
| 2026-04-29 18:44 | 44.00867 | 68.83227 | 32952 ft | 493 kts | 111° |
| 2026-04-29 18:45 | 43.98634 | 68.92195 | 32947 ft | 494 kts | 111° |
| 2026-04-29 18:45 | 43.96449 | 69.01229 | 32950 ft | 494 kts | 110° |
| 2026-04-29 18:46 | 43.94255 | 69.10236 | 32947 ft | 494 kts | 110° |
| 2026-04-29 18:46 | 43.92086 | 69.19261 | 32951 ft | 494 kts | 110° |
| 2026-04-29 18:47 | 43.89908 | 69.28265 | 32949 ft | 495 kts | 110° |
| 2026-04-29 18:47 | 43.87692 | 69.37313 | 32954 ft | 495 kts | 110° |
| 2026-04-29 18:48 | 43.85484 | 69.46330 | 32950 ft | 496 kts | 110° |
| 2026-04-29 18:48 | 43.83287 | 69.55340 | 32948 ft | 496 kts | 110° |
| 2026-04-29 18:49 | 43.81089 | 69.64381 | 32947 ft | 495 kts | 110° |
| 2026-04-29 18:49 | 43.78906 | 69.73382 | 32942 ft | 495 kts | 110° |
| 2026-04-29 18:50 | 43.76733 | 69.82380 | 32945 ft | 496 kts | 110° |
| 2026-04-29 18:50 | 43.74565 | 69.91412 | 32947 ft | 496 kts | 110° |
| 2026-04-29 18:51 | 43.72398 | 70.00449 | 32950 ft | 497 kts | 110° |
| 2026-04-29 18:51 | 43.70240 | 70.09506 | 32950 ft | 497 kts | 109° |
| 2026-04-29 18:52 | 43.68072 | 70.18607 | 32953 ft | 498 kts | 109° |
| 2026-04-29 18:52 | 43.65935 | 70.27635 | 32950 ft | 498 kts | 109° |
| 2026-04-29 18:53 | 43.63758 | 70.36729 | 32944 ft | 497 kts | 110° |
| 2026-04-29 18:53 | 43.61476 | 70.45702 | 32948 ft | 497 kts | 110° |
| 2026-04-29 18:54 | 43.59208 | 70.54746 | 32945 ft | 498 kts | 109° |
| 2026-04-29 18:54 | 43.56972 | 70.63750 | 32945 ft | 498 kts | 110° |
| 2026-04-29 18:55 | 43.54721 | 70.72771 | 32938 ft | 498 kts | 110° |
| 2026-04-29 18:55 | 43.52577 | 70.81792 | 32910 ft | 498 kts | 105° |
| 2026-04-29 18:56 | 43.51813 | 70.91249 | 32940 ft | 499 kts | 87° |
| 2026-04-29 18:56 | 43.52522 | 71.00735 | 32934 ft | 500 kts | 83° |
| 2026-04-29 18:57 | 43.53262 | 71.10257 | 32925 ft | 500 kts | 84° |
| 2026-04-29 18:57 | 43.53880 | 71.19793 | 32927 ft | 500 kts | 85° |
| 2026-04-29 18:58 | 43.54480 | 71.29283 | 32930 ft | 500 kts | 84° |
| 2026-04-29 18:58 | 43.55109 | 71.38878 | 32933 ft | 501 kts | 84° |
| 2026-04-29 18:59 | 43.55753 | 71.48396 | 32936 ft | 501 kts | 84° |
| 2026-04-29 18:59 | 43.56407 | 71.57905 | 32940 ft | 501 kts | 84° |
| 2026-04-29 19:00 | 43.57069 | 71.67477 | 32941 ft | 500 kts | 84° |
| 2026-04-29 19:00 | 43.57737 | 71.77039 | 32942 ft | 500 kts | 84° |
| 2026-04-29 19:01 | 43.58419 | 71.86541 | 32946 ft | 499 kts | 84° |
| 2026-04-29 19:01 | 43.59103 | 71.96049 | 32950 ft | 499 kts | 83° |
| 2026-04-29 19:02 | 43.59687 | 72.03943 | 32954 ft | 499 kts | 83° |
| 2026-04-29 19:02 | 43.60063 | 72.15126 | 32967 ft | 500 kts | 89° |
| 2026-04-29 19:03 | 43.60059 | 72.24684 | 32968 ft | 500 kts | 89° |
| 2026-04-29 19:03 | 43.60169 | 72.34221 | 32967 ft | 500 kts | 88° |
| 2026-04-29 19:04 | 43.60315 | 72.43829 | 32969 ft | 500 kts | 88° |
| 2026-04-29 19:04 | 43.60453 | 72.53371 | 32973 ft | 499 kts | 88° |
| 2026-04-29 19:05 | 43.60617 | 72.62952 | 32974 ft | 499 kts | 88° |
| 2026-04-29 19:05 | 43.60775 | 72.72491 | 32970 ft | 499 kts | 88° |
| 2026-04-29 19:06 | 43.60948 | 72.82073 | 32970 ft | 499 kts | 88° |
| 2026-04-29 19:07 | 43.61220 | 72.96426 | 32971 ft | 499 kts | 88° |
| 2026-04-29 19:07 | 43.61412 | 73.05938 | 32973 ft | 499 kts | 87° |
| 2026-04-29 19:08 | 43.61611 | 73.15503 | 32973 ft | 499 kts | 87° |
| 2026-04-29 19:08 | 43.61800 | 73.25098 | 32969 ft | 499 kts | 88° |
| 2026-04-29 19:09 | 43.61823 | 73.34646 | 32973 ft | 500 kts | 89° |
| 2026-04-29 19:09 | 43.61823 | 73.44230 | 32967 ft | 499 kts | 89° |
| 2026-04-29 19:10 | 43.61852 | 73.53817 | 32965 ft | 499 kts | 88° |
| 2026-04-29 19:10 | 43.61897 | 73.63332 | 32963 ft | 499 kts | 88° |
| 2026-04-29 19:11 | 43.61952 | 73.72903 | 32962 ft | 499 kts | 89° |
| 2026-04-29 19:11 | 43.62014 | 73.82469 | 32958 ft | 499 kts | 89° |
| 2026-04-29 19:12 | 43.62081 | 73.92010 | 32959 ft | 499 kts | 88° |
| 2026-04-29 19:12 | 43.62160 | 74.01582 | 32965 ft | 498 kts | 88° |
| 2026-04-29 19:13 | 43.62248 | 74.11150 | 32975 ft | 498 kts | 88° |
| 2026-04-29 19:13 | 43.62344 | 74.20712 | 32988 ft | 498 kts | 88° |
| 2026-04-29 19:14 | 43.62448 | 74.30228 | 33009 ft | 499 kts | 88° |
| 2026-04-29 19:14 | 43.62542 | 74.39818 | 33022 ft | 499 kts | 89° |
| 2026-04-29 19:15 | 43.62474 | 74.49346 | 33036 ft | 500 kts | 89° |
| 2026-04-29 19:15 | 43.62382 | 74.58974 | 33041 ft | 500 kts | 89° |
| 2026-04-29 19:16 | 43.62313 | 74.68546 | 33047 ft | 500 kts | 89° |
| 2026-04-29 19:16 | 43.62262 | 74.78089 | 33054 ft | 500 kts | 89° |
| 2026-04-29 19:17 | 43.62218 | 74.87669 | 33056 ft | 500 kts | 89° |
| 2026-04-29 19:17 | 43.62181 | 74.97297 | 33057 ft | 500 kts | 89° |
| 2026-04-29 19:18 | 43.62154 | 75.06830 | 33053 ft | 500 kts | 89° |
| 2026-04-29 19:18 | 43.62137 | 75.16444 | 33050 ft | 500 kts | 88° |
| 2026-04-29 19:19 | 43.62128 | 75.25997 | 33057 ft | 500 kts | 88° |
| 2026-04-29 19:19 | 43.62129 | 75.35578 | 33057 ft | 500 kts | 88° |
| 2026-04-29 19:20 | 43.62136 | 75.45162 | 33059 ft | 501 kts | 88° |
| 2026-04-29 19:20 | 43.62138 | 75.54762 | 33060 ft | 501 kts | 89° |
| 2026-04-29 19:21 | 43.61973 | 75.64366 | 33063 ft | 502 kts | 89° |
| 2026-04-29 19:21 | 43.61774 | 75.74006 | 33059 ft | 502 kts | 90° |
| 2026-04-29 19:22 | 43.61609 | 75.83610 | 33066 ft | 502 kts | 89° |
| 2026-04-29 19:22 | 43.61470 | 75.93230 | 33071 ft | 502 kts | 89° |
| 2026-04-29 19:23 | 43.61334 | 76.02914 | 33078 ft | 502 kts | 89° |
| 2026-04-29 19:23 | 43.61199 | 76.12556 | 33077 ft | 503 kts | 89° |
| 2026-04-29 19:24 | 43.61073 | 76.22186 | 33070 ft | 502 kts | 89° |
| 2026-04-29 19:24 | 43.60957 | 76.31793 | 33070 ft | 503 kts | 89° |
| 2026-04-29 19:25 | 43.60854 | 76.41466 | 33085 ft | 504 kts | 88° |
| 2026-04-29 19:25 | 43.60756 | 76.51099 | 33081 ft | 505 kts | 88° |
| 2026-04-29 19:26 | 43.60671 | 76.60753 | 33073 ft | 505 kts | 88° |
| 2026-04-29 19:26 | 43.60562 | 76.70476 | 33062 ft | 505 kts | 90° |
| 2026-04-29 19:27 | 43.60284 | 76.80114 | 33074 ft | 506 kts | 90° |
| 2026-04-29 19:27 | 43.59986 | 76.89827 | 33074 ft | 506 kts | 90° |
| 2026-04-29 19:28 | 43.59732 | 76.99514 | 33074 ft | 505 kts | 90° |
| 2026-04-29 19:28 | 43.59494 | 77.09174 | 33087 ft | 506 kts | 90° |
| 2026-04-29 19:29 | 43.59266 | 77.18587 | 33084 ft | 506 kts | 89° |
| 2026-04-29 19:29 | 43.59037 | 77.28304 | 33101 ft | 506 kts | 89° |
| 2026-04-29 19:30 | 43.58816 | 77.37962 | 33109 ft | 507 kts | 89° |
| 2026-04-29 19:30 | 43.58609 | 77.47673 | 33107 ft | 507 kts | 89° |
| 2026-04-29 19:31 | 43.58405 | 77.57393 | 33121 ft | 506 kts | 89° |
| 2026-04-29 19:31 | 43.58215 | 77.67100 | 33121 ft | 506 kts | 89° |
| 2026-04-29 19:32 | 43.58026 | 77.76739 | 33116 ft | 506 kts | 89° |
| 2026-04-29 19:32 | 43.57825 | 77.86382 | 33120 ft | 506 kts | 90° |
| 2026-04-29 19:33 | 43.57499 | 77.96118 | 33118 ft | 506 kts | 90° |
| 2026-04-29 19:33 | 43.57271 | 78.05760 | 33121 ft | 505 kts | 87° |
| 2026-04-29 19:34 | 43.57294 | 78.15424 | 33137 ft | 505 kts | 88° |
| 2026-04-29 19:34 | 43.57088 | 78.25139 | 33142 ft | 506 kts | 89° |
| 2026-04-29 19:35 | 43.56805 | 78.34812 | 33139 ft | 506 kts | 89° |
| 2026-04-29 19:35 | 43.56551 | 78.44450 | 33147 ft | 506 kts | 89° |
| 2026-04-29 19:36 | 43.56322 | 78.54160 | 33148 ft | 506 kts | 89° |
| 2026-04-29 19:36 | 43.56107 | 78.63790 | 33148 ft | 505 kts | 89° |
| 2026-04-29 19:37 | 43.55895 | 78.73457 | 33149 ft | 505 kts | 89° |
| 2026-04-29 19:37 | 43.55691 | 78.83134 | 33158 ft | 505 kts | 89° |
| 2026-04-29 19:38 | 43.55495 | 78.92838 | 33158 ft | 505 kts | 89° |
| 2026-04-29 19:38 | 43.55312 | 79.02510 | 33152 ft | 505 kts | 89° |
| 2026-04-29 19:39 | 43.55136 | 79.12132 | 33141 ft | 505 kts | 89° |
| 2026-04-29 19:39 | 43.54971 | 79.21772 | 33130 ft | 505 kts | 88° |
| 2026-04-29 19:40 | 43.54776 | 79.31452 | 33124 ft | 506 kts | 90° |
| 2026-04-29 19:40 | 43.54452 | 79.41125 | 33115 ft | 506 kts | 90° |
| 2026-04-29 19:41 | 43.54155 | 79.50790 | 33112 ft | 505 kts | 89° |
| 2026-04-29 19:41 | 43.53873 | 79.60499 | 33111 ft | 506 kts | 90° |
| 2026-04-29 19:42 | 43.53593 | 79.70152 | 33114 ft | 506 kts | 90° |
| 2026-04-29 19:42 | 43.53330 | 79.79857 | 33113 ft | 506 kts | 90° |
| 2026-04-29 19:43 | 43.53014 | 79.89467 | 33116 ft | 506 kts | 91° |
| 2026-04-29 19:43 | 43.52629 | 79.99160 | 33125 ft | 506 kts | 91° |
| 2026-04-29 19:44 | 43.52253 | 80.08815 | 33135 ft | 506 kts | 90° |
| 2026-04-29 19:44 | 43.51890 | 80.18510 | 33145 ft | 507 kts | 90° |
| 2026-04-29 19:45 | 43.51543 | 80.28188 | 33143 ft | 506 kts | 90° |
| 2026-04-29 19:45 | 43.51201 | 80.37875 | 33150 ft | 507 kts | 90° |
| 2026-04-29 19:46 | 43.50872 | 80.47488 | 33152 ft | 507 kts | 90° |
| 2026-04-29 19:46 | 43.50546 | 80.57240 | 33156 ft | 507 kts | 90° |
| 2026-04-29 19:47 | 43.50233 | 80.66878 | 33159 ft | 507 kts | 90° |
| 2026-04-29 19:47 | 43.49941 | 80.76599 | 33162 ft | 507 kts | 89° |
| 2026-04-29 19:48 | 43.49800 | 80.86272 | 33171 ft | 507 kts | 89° |
| 2026-04-29 19:48 | 43.49611 | 80.95946 | 33170 ft | 507 kts | 89° |
| 2026-04-29 19:49 | 43.49402 | 81.05656 | 33183 ft | 508 kts | 89° |
| 2026-04-29 19:49 | 43.49205 | 81.15369 | 33195 ft | 507 kts | 89° |
| 2026-04-29 19:50 | 43.49027 | 81.25026 | 33217 ft | 507 kts | 89° |
| 2026-04-29 19:50 | 43.48857 | 81.34735 | 33225 ft | 508 kts | 88° |
| 2026-04-29 19:51 | 43.48696 | 81.44450 | 33227 ft | 508 kts | 88° |
| 2026-04-29 19:51 | 43.48550 | 81.54175 | 33227 ft | 508 kts | 88° |
| 2026-04-29 19:52 | 43.48404 | 81.63817 | 33224 ft | 507 kts | 88° |
| 2026-04-29 19:52 | 43.48261 | 81.73566 | 33211 ft | 508 kts | 89° |
| 2026-04-29 19:53 | 43.47949 | 81.83298 | 33215 ft | 508 kts | 90° |
| 2026-04-29 19:53 | 43.47599 | 81.92990 | 33209 ft | 508 kts | 90° |
| 2026-04-29 19:54 | 43.47128 | 82.07542 | 33201 ft | 508 kts | 90° |
| 2026-04-29 19:54 | 43.46834 | 82.17220 | 33197 ft | 509 kts | 89° |
| 2026-04-29 19:55 | 43.46543 | 82.26966 | 33199 ft | 509 kts | 89° |
| 2026-04-29 19:55 | 43.46261 | 82.36638 | 33204 ft | 509 kts | 89° |
| 2026-04-29 19:56 | 43.45988 | 82.46366 | 33217 ft | 509 kts | 89° |
| 2026-04-29 19:56 | 43.45723 | 82.56099 | 33231 ft | 509 kts | 89° |
| 2026-04-29 19:57 | 43.45510 | 82.64179 | 33246 ft | 509 kts | 89° |
| 2026-04-29 19:57 | 43.45219 | 82.75562 | 33261 ft | 509 kts | 89° |
| 2026-04-29 19:58 | 43.44982 | 82.85226 | 33271 ft | 509 kts | 89° |
| 2026-04-29 19:58 | 43.44640 | 82.94945 | 33288 ft | 510 kts | 91° |
| 2026-04-29 19:59 | 43.44246 | 83.04713 | 33313 ft | 510 kts | 90° |
| 2026-04-29 19:59 | 43.43907 | 83.14420 | 33330 ft | 510 kts | 90° |
| 2026-04-29 20:00 | 43.43551 | 83.24173 | 33343 ft | 510 kts | 90° |
| 2026-04-29 20:00 | 43.43223 | 83.33872 | 33354 ft | 510 kts | 90° |
| 2026-04-29 20:01 | 43.42718 | 83.43604 | 33362 ft | 511 kts | 94° |
| 2026-04-29 20:01 | 43.41868 | 83.53316 | 33370 ft | 511 kts | 95° |
| 2026-04-29 20:02 | 43.40953 | 83.62965 | 33377 ft | 511 kts | 95° |
| 2026-04-29 20:02 | 43.40366 | 83.69443 | 33377 ft | 512 kts | 95° |
| 2026-04-29 20:03 | 43.39216 | 83.82416 | 33389 ft | 512 kts | 95° |
| 2026-04-29 20:03 | 43.38372 | 83.92058 | 33391 ft | 512 kts | 95° |
| 2026-04-29 20:04 | 43.37528 | 84.01758 | 33393 ft | 512 kts | 95° |
| 2026-04-29 20:04 | 43.36694 | 84.11475 | 33389 ft | 511 kts | 95° |
| 2026-04-29 20:05 | 43.35868 | 84.21159 | 33385 ft | 511 kts | 94° |
| 2026-04-29 20:05 | 43.35054 | 84.30837 | 33375 ft | 512 kts | 94° |
| 2026-04-29 20:06 | 43.34228 | 84.40535 | 33363 ft | 513 kts | 95° |
| 2026-04-29 20:06 | 43.33230 | 84.50209 | 33354 ft | 513 kts | 96° |
| 2026-04-29 20:07 | 43.32193 | 84.59916 | 33348 ft | 513 kts | 96° |
| 2026-04-29 20:07 | 43.31190 | 84.69587 | 33340 ft | 512 kts | 96° |
| 2026-04-29 20:08 | 43.30533 | 84.76006 | 33335 ft | 512 kts | 96° |
| 2026-04-29 20:08 | 43.29232 | 84.88880 | 33328 ft | 512 kts | 96° |
| 2026-04-29 20:09 | 43.28259 | 84.98591 | 33320 ft | 512 kts | 96° |
| 2026-04-29 20:09 | 43.27299 | 85.08245 | 33323 ft | 512 kts | 96° |
| 2026-04-29 20:10 | 43.26349 | 85.17913 | 33322 ft | 512 kts | 96° |
| 2026-04-29 20:10 | 43.25409 | 85.27557 | 33321 ft | 513 kts | 95° |
| 2026-04-29 20:11 | 43.24471 | 85.37264 | 33325 ft | 513 kts | 95° |
| 2026-04-29 20:11 | 43.23543 | 85.46970 | 33329 ft | 514 kts | 95° |
| 2026-04-29 20:12 | 43.22579 | 85.56658 | 33323 ft | 514 kts | 96° |
| 2026-04-29 20:12 | 43.21504 | 85.66320 | 33317 ft | 514 kts | 97° |
| 2026-04-29 20:13 | 43.20639 | 85.74399 | 33313 ft | 515 kts | 96° |
| 2026-04-29 20:13 | 43.19446 | 85.85707 | 33305 ft | 515 kts | 97° |
| 2026-04-29 20:14 | 43.19043 | 85.95428 | 33317 ft | 509 kts | 81° |
| 2026-04-29 20:14 | 43.20852 | 86.04691 | 33324 ft | 499 kts | 60° |
| 2026-04-29 20:15 | 43.24636 | 86.12441 | 33319 ft | 489 kts | 45° |
| 2026-04-29 20:15 | 43.28974 | 86.19640 | 33300 ft | 493 kts | 49° |
| 2026-04-29 20:16 | 43.32895 | 86.27368 | 33301 ft | 495 kts | 52° |
| 2026-04-29 20:16 | 43.36681 | 86.35279 | 33300 ft | 495 kts | 52° |
| 2026-04-29 20:17 | 43.40481 | 86.43109 | 33296 ft | 495 kts | 52° |
| 2026-04-29 20:17 | 43.44328 | 86.50977 | 33300 ft | 494 kts | 52° |
| 2026-04-29 20:18 | 43.48129 | 86.58801 | 33298 ft | 494 kts | 52° |
| 2026-04-29 20:18 | 43.51924 | 86.66653 | 33304 ft | 493 kts | 52° |
| 2026-04-29 20:19 | 43.55755 | 86.74536 | 33304 ft | 494 kts | 52° |
| 2026-04-29 20:19 | 43.59483 | 86.82410 | 33301 ft | 495 kts | 53° |
| 2026-04-29 20:20 | 43.63218 | 86.90412 | 33301 ft | 495 kts | 53° |
| 2026-04-29 20:20 | 43.66988 | 86.98376 | 33301 ft | 496 kts | 53° |
| 2026-04-29 20:21 | 43.70732 | 87.06368 | 33294 ft | 496 kts | 53° |
| 2026-04-29 20:21 | 43.74503 | 87.14325 | 33284 ft | 496 kts | 52° |
| 2026-04-29 20:22 | 43.78258 | 87.22315 | 33265 ft | 496 kts | 53° |
| 2026-04-29 20:22 | 43.81966 | 87.30382 | 33241 ft | 496 kts | 53° |
| 2026-04-29 20:23 | 43.85682 | 87.38368 | 33213 ft | 495 kts | 53° |
| 2026-04-29 20:23 | 43.89400 | 87.46395 | 33200 ft | 495 kts | 52° |
| 2026-04-29 20:24 | 43.93327 | 87.54176 | 33191 ft | 493 kts | 49° |
| 2026-04-29 20:24 | 43.97459 | 87.61795 | 33190 ft | 493 kts | 48° |
| 2026-04-29 20:25 | 44.01570 | 87.69409 | 33183 ft | 493 kts | 49° |
| 2026-04-29 20:25 | 44.05691 | 87.77057 | 33177 ft | 493 kts | 49° |
| 2026-04-29 20:26 | 44.09800 | 87.84663 | 33190 ft | 493 kts | 48° |
| 2026-04-29 20:26 | 44.13937 | 87.92300 | 33198 ft | 494 kts | 49° |
| 2026-04-29 20:27 | 44.16463 | 87.97659 | 33195 ft | 499 kts | 58° |
| 2026-04-29 20:27 | 44.18559 | 88.05190 | 33211 ft | 508 kts | 72° |
| 2026-04-29 20:27 | 44.19303 | 88.10003 | 33212 ft | 510 kts | 76° |
| 2026-04-29 20:28 | 44.20498 | 88.19692 | 33195 ft | 511 kts | 76° |
| 2026-04-29 20:28 | 44.21767 | 88.29421 | 33189 ft | 508 kts | 75° |
| 2026-04-29 20:29 | 44.23145 | 88.39042 | 33184 ft | 508 kts | 75° |
| 2026-04-29 20:29 | 44.24511 | 88.48707 | 33181 ft | 509 kts | 75° |
| 2026-04-29 20:30 | 44.25885 | 88.58320 | 33172 ft | 509 kts | 75° |
| 2026-04-29 20:30 | 44.27282 | 88.68015 | 33172 ft | 509 kts | 75° |
| 2026-04-29 20:31 | 44.28682 | 88.77698 | 33164 ft | 509 kts | 75° |
| 2026-04-29 20:31 | 44.30094 | 88.87382 | 33157 ft | 509 kts | 75° |
| 2026-04-29 20:32 | 44.31506 | 88.97015 | 33158 ft | 510 kts | 75° |
| 2026-04-29 20:32 | 44.32695 | 89.05078 | 33156 ft | 510 kts | 75° |
| 2026-04-29 20:33 | 44.34368 | 89.16381 | 33157 ft | 512 kts | 74° |
| 2026-04-29 20:33 | 44.35778 | 89.26128 | 33151 ft | 512 kts | 75° |
| 2026-04-29 20:34 | 44.37073 | 89.35925 | 33152 ft | 512 kts | 75° |
| 2026-04-29 20:34 | 44.38400 | 89.45672 | 33152 ft | 512 kts | 75° |
| 2026-04-29 20:35 | 44.39742 | 89.55431 | 33147 ft | 512 kts | 75° |
| 2026-04-29 20:35 | 44.41015 | 89.65196 | 33126 ft | 514 kts | 80° |
| 2026-04-29 20:36 | 44.40720 | 89.75282 | 33163 ft | 523 kts | 100° |
| 2026-04-29 20:36 | 44.38582 | 89.84984 | 33155 ft | 527 kts | 108° |
| 2026-04-29 20:37 | 44.36151 | 89.94666 | 33138 ft | 527 kts | 107° |
| 2026-04-29 20:37 | 44.33931 | 90.04356 | 33139 ft | 527 kts | 106° |
| 2026-04-29 20:38 | 44.31755 | 90.14133 | 33136 ft | 528 kts | 106° |
| 2026-04-29 20:38 | 44.29561 | 90.23940 | 33137 ft | 529 kts | 106° |
| 2026-04-29 20:39 | 44.27382 | 90.33734 | 33132 ft | 530 kts | 106° |
| 2026-04-29 20:39 | 44.25221 | 90.43525 | 33131 ft | 530 kts | 106° |
| 2026-04-29 20:40 | 44.23058 | 90.53321 | 33138 ft | 532 kts | 106° |
| 2026-04-29 20:40 | 44.20900 | 90.63174 | 33128 ft | 533 kts | 106° |
| 2026-04-29 20:41 | 44.18731 | 90.73072 | 33123 ft | 533 kts | 107° |
| 2026-04-29 20:41 | 44.16581 | 90.82977 | 33126 ft | 534 kts | 107° |
| 2026-04-29 20:42 | 44.14415 | 90.92815 | 33125 ft | 535 kts | 108° |
| 2026-04-29 20:42 | 44.12122 | 91.02711 | 33129 ft | 537 kts | 108° |
| 2026-04-29 20:43 | 44.09845 | 91.12540 | 33126 ft | 538 kts | 109° |
| 2026-04-29 20:43 | 44.07547 | 91.22445 | 33130 ft | 540 kts | 108° |
| 2026-04-29 20:44 | 44.05262 | 91.32416 | 33116 ft | 541 kts | 108° |
| 2026-04-29 20:44 | 44.02976 | 91.42323 | 33106 ft | 542 kts | 107° |
| 2026-04-29 20:45 | 44.00599 | 91.52270 | 33104 ft | 543 kts | 109° |
| 2026-04-29 20:45 | 43.98133 | 91.62184 | 33076 ft | 543 kts | 109° |
| 2026-04-29 20:46 | 43.95689 | 91.72137 | 33072 ft | 544 kts | 110° |
| 2026-04-29 20:46 | 43.93266 | 91.82107 | 33064 ft | 546 kts | 110° |
| 2026-04-29 20:47 | 43.90855 | 91.92062 | 33051 ft | 547 kts | 110° |
| 2026-04-29 20:47 | 43.88856 | 92.00367 | 33037 ft | 548 kts | 109° |
| 2026-04-29 20:48 | 43.86034 | 92.12102 | 33030 ft | 552 kts | 109° |
| 2026-04-29 20:48 | 43.83627 | 92.22141 | 33019 ft | 552 kts | 108° |
| 2026-04-29 20:49 | 43.81226 | 92.32270 | 33007 ft | 551 kts | 109° |
| 2026-04-29 20:49 | 43.78825 | 92.42303 | 33006 ft | 549 kts | 109° |
| 2026-04-29 20:50 | 43.76476 | 92.52323 | 33007 ft | 551 kts | 109° |
| 2026-04-29 20:50 | 43.73960 | 92.62396 | 33017 ft | 552 kts | 110° |
| 2026-04-29 20:51 | 43.71420 | 92.72363 | 33007 ft | 550 kts | 110° |
| 2026-04-29 20:51 | 43.68953 | 92.82336 | 33009 ft | 550 kts | 111° |
| 2026-04-29 20:52 | 43.66455 | 92.92345 | 33009 ft | 553 kts | 110° |
| 2026-04-29 20:52 | 43.63961 | 93.02464 | 33002 ft | 554 kts | 109° |
| 2026-04-29 20:53 | 43.61489 | 93.12514 | 32992 ft | 553 kts | 110° |
| 2026-04-29 20:53 | 43.59013 | 93.22458 | 32990 ft | 551 kts | 110° |
| 2026-04-29 20:54 | 43.55323 | 93.37375 | 32989 ft | 549 kts | 110° |
| 2026-04-29 20:55 | 43.52874 | 93.47324 | 32997 ft | 547 kts | 109° |
| 2026-04-29 20:55 | 43.50447 | 93.57240 | 32997 ft | 547 kts | 110° |
| 2026-04-29 20:56 | 43.48025 | 93.67165 | 32981 ft | 547 kts | 110° |
| 2026-04-29 20:56 | 43.45610 | 93.77101 | 32986 ft | 546 kts | 110° |
| 2026-04-29 20:57 | 43.43218 | 93.86982 | 32988 ft | 545 kts | 109° |
| 2026-04-29 20:57 | 43.40836 | 93.96851 | 32991 ft | 545 kts | 109° |
| 2026-04-29 20:58 | 43.38478 | 94.06682 | 33017 ft | 544 kts | 110° |
| 2026-04-29 20:58 | 43.36019 | 94.16481 | 33019 ft | 542 kts | 111° |
| 2026-04-29 20:59 | 43.33464 | 94.26204 | 33014 ft | 542 kts | 111° |
| 2026-04-29 20:59 | 43.30943 | 94.35952 | 33026 ft | 542 kts | 110° |
| 2026-04-29 21:00 | 43.28432 | 94.45727 | 33011 ft | 543 kts | 110° |
| 2026-04-29 21:00 | 43.25937 | 94.55482 | 33020 ft | 542 kts | 110° |
| 2026-04-29 21:01 | 43.23457 | 94.65204 | 33036 ft | 541 kts | 111° |
| 2026-04-29 21:01 | 43.20990 | 94.74934 | 33021 ft | 541 kts | 111° |
| 2026-04-29 21:02 | 43.18517 | 94.84699 | 33038 ft | 541 kts | 110° |
| 2026-04-29 21:02 | 43.16060 | 94.94430 | 33035 ft | 540 kts | 110° |
| 2026-04-29 21:03 | 43.13524 | 95.04054 | 33018 ft | 539 kts | 117° |
| 2026-04-29 21:03 | 43.09477 | 95.12507 | 33072 ft | 527 kts | 137° |
| 2026-04-29 21:04 | 43.03855 | 95.18628 | 33071 ft | 511 kts | 157° |
| 2026-04-29 21:04 | 42.97562 | 95.23008 | 33036 ft | 511 kts | 157° |
| 2026-04-29 21:05 | 42.91447 | 95.28117 | 33027 ft | 516 kts | 152° |
| 2026-04-29 21:05 | 42.85522 | 95.33619 | 33028 ft | 517 kts | 151° |
| 2026-04-29 21:06 | 42.79553 | 95.39113 | 33022 ft | 516 kts | 151° |
| 2026-04-29 21:06 | 42.73633 | 95.44538 | 33013 ft | 515 kts | 151° |
| 2026-04-29 21:07 | 42.67686 | 95.49988 | 33016 ft | 516 kts | 151° |
| 2026-04-29 21:07 | 42.62708 | 95.54575 | 33015 ft | 518 kts | 151° |
| 2026-04-29 21:07 | 42.58756 | 95.58216 | 33669 ft | 516 kts | 151° |
| 2026-04-29 21:08 | 42.55792 | 95.60942 | 34046 ft | 518 kts | 151° |
| 2026-04-29 21:08 | 42.52821 | 95.63673 | 34503 ft | 517 kts | 151° |
| 2026-04-29 21:08 | 42.49838 | 95.66430 | 34905 ft | 516 kts | 152° |
| 2026-04-29 21:09 | 42.44033 | 95.72104 | 34935 ft | 519 kts | 142° |
| 2026-04-29 21:09 | 42.39512 | 95.79855 | 35016 ft | 534 kts | 121° |
| 2026-04-29 21:10 | 42.36981 | 95.89362 | 35199 ft | 543 kts | 101° |
| 2026-04-29 21:10 | 42.36666 | 95.99441 | 35085 ft | 541 kts | 82° |
| 2026-04-29 21:10 | 42.37182 | 96.04507 | 34919 ft | 540 kts | 81° |
| 2026-04-29 21:11 | 42.37589 | 96.09547 | 34978 ft | 542 kts | 85° |
| 2026-04-29 21:11 | 42.37563 | 96.19680 | 34995 ft | 543 kts | 92° |
| 2026-04-29 21:12 | 42.37120 | 96.29876 | 34999 ft | 542 kts | 93° |
| 2026-04-29 21:12 | 42.36915 | 96.34960 | 35159 ft | 542 kts | 92° |
| 2026-04-29 21:12 | 42.36750 | 96.40055 | 35064 ft | 542 kts | 92° |
| 2026-04-29 21:13 | 42.36453 | 96.50146 | 34914 ft | 541 kts | 92° |
| 2026-04-29 21:13 | 42.36293 | 96.55227 | 35063 ft | 541 kts | 92° |
| 2026-04-29 21:13 | 42.36126 | 96.60383 | 35028 ft | 541 kts | 92° |
| 2026-04-29 21:14 | 42.35834 | 96.70509 | 35011 ft | 540 kts | 92° |
| 2026-04-29 21:14 | 42.35527 | 96.80652 | 34999 ft | 540 kts | 92° |
| 2026-04-29 21:15 | 42.35253 | 96.90753 | 35011 ft | 540 kts | 92° |
| 2026-04-29 21:15 | 42.34970 | 97.00935 | 34930 ft | 539 kts | 92° |
| 2026-04-29 21:15 | 42.34815 | 97.06007 | 35055 ft | 541 kts | 93° |
| 2026-04-29 21:16 | 42.34598 | 97.11042 | 35057 ft | 540 kts | 94° |
| 2026-04-29 21:16 | 42.34108 | 97.21180 | 35034 ft | 541 kts | 94° |
| 2026-04-29 21:16 | 42.33867 | 97.26238 | 34887 ft | 540 kts | 94° |
| 2026-04-29 21:17 | 42.33639 | 97.31267 | 34940 ft | 540 kts | 93° |
| 2026-04-29 21:17 | 42.33195 | 97.41411 | 34927 ft | 541 kts | 93° |
| 2026-04-29 21:18 | 42.32765 | 97.51557 | 34966 ft | 541 kts | 93° |
| 2026-04-29 21:18 | 42.32342 | 97.61681 | 34978 ft | 541 kts | 93° |
| 2026-04-29 21:19 | 42.31926 | 97.71870 | 34980 ft | 541 kts | 93° |
| 2026-04-29 21:19 | 42.31519 | 97.82003 | 34980 ft | 540 kts | 93° |
| 2026-04-29 21:20 | 42.31130 | 97.92101 | 34983 ft | 540 kts | 93° |
| 2026-04-29 21:20 | 42.30741 | 98.02194 | 34986 ft | 540 kts | 93° |
| 2026-04-29 21:21 | 42.30372 | 98.12317 | 34980 ft | 540 kts | 93° |
| 2026-04-29 21:21 | 42.29936 | 98.22449 | 34988 ft | 540 kts | 94° |
| 2026-04-29 21:22 | 42.29429 | 98.32572 | 34981 ft | 540 kts | 94° |
| 2026-04-29 21:22 | 42.28856 | 98.42667 | 34974 ft | 540 kts | 95° |
| 2026-04-29 21:23 | 42.28232 | 98.52732 | 34977 ft | 541 kts | 95° |
| 2026-04-29 21:23 | 42.27635 | 98.62780 | 34966 ft | 540 kts | 95° |
| 2026-04-29 21:24 | 42.27049 | 98.72913 | 34949 ft | 540 kts | 95° |
| 2026-04-29 21:24 | 42.26476 | 98.82983 | 34947 ft | 540 kts | 95° |
| 2026-04-29 21:25 | 42.25909 | 98.93082 | 34951 ft | 540 kts | 95° |
| 2026-04-29 21:25 | 42.25358 | 99.03168 | 34948 ft | 540 kts | 95° |
| 2026-04-29 21:26 | 42.24807 | 99.13285 | 34931 ft | 541 kts | 94° |
| 2026-04-29 21:26 | 42.24279 | 99.23354 | 34926 ft | 540 kts | 94° |
| 2026-04-29 21:27 | 42.23835 | 99.31763 | 34921 ft | 540 kts | 94° |
| 2026-04-29 21:27 | 42.23228 | 99.43615 | 34921 ft | 541 kts | 94° |
| 2026-04-29 21:28 | 42.22583 | 99.53715 | 34912 ft | 540 kts | 96° |
| 2026-04-29 21:28 | 42.21838 | 99.63757 | 34906 ft | 541 kts | 96° |
| 2026-04-29 21:29 | 42.21126 | 99.73836 | 34895 ft | 541 kts | 96° |
| 2026-04-29 21:29 | 42.20457 | 99.83978 | 34885 ft | 541 kts | 95° |
| 2026-04-29 21:30 | 42.19784 | 99.94034 | 34882 ft | 542 kts | 95° |
| 2026-04-29 21:30 | 42.19116 | 100.04140 | 34879 ft | 542 kts | 95° |
| 2026-04-29 21:31 | 42.18457 | 100.14259 | 34881 ft | 542 kts | 95° |
| 2026-04-29 21:31 | 42.17809 | 100.24403 | 34885 ft | 542 kts | 95° |
| 2026-04-29 21:32 | 42.17170 | 100.34508 | 34872 ft | 541 kts | 95° |
| 2026-04-29 21:32 | 42.16549 | 100.44569 | 34878 ft | 541 kts | 95° |
| 2026-04-29 21:33 | 42.15923 | 100.54645 | 34881 ft | 541 kts | 95° |
| 2026-04-29 21:33 | 42.15219 | 100.64771 | 34879 ft | 542 kts | 96° |
| 2026-04-29 21:34 | 42.14442 | 100.74850 | 34870 ft | 541 kts | 96° |
| 2026-04-29 21:34 | 42.13728 | 100.84911 | 34868 ft | 541 kts | 96° |
| 2026-04-29 21:35 | 42.13009 | 100.94916 | 34869 ft | 541 kts | 96° |
| 2026-04-29 21:35 | 42.12087 | 101.04951 | 34877 ft | 540 kts | 102° |
| 2026-04-29 21:36 | 42.09972 | 101.14619 | 34898 ft | 536 kts | 112° |
| 2026-04-29 21:36 | 42.07314 | 101.23959 | 34899 ft | 537 kts | 113° |
| 2026-04-29 21:37 | 42.05129 | 101.31793 | 34898 ft | 537 kts | 112° |
| 2026-04-29 21:37 | 42.02204 | 101.42745 | 34894 ft | 536 kts | 112° |
| 2026-04-29 21:38 | 41.99672 | 101.52142 | 34901 ft | 536 kts | 112° |
| 2026-04-29 21:38 | 41.97152 | 101.61587 | 34900 ft | 536 kts | 111° |
| 2026-04-29 21:39 | 41.94636 | 101.70993 | 34896 ft | 534 kts | 112° |
| 2026-04-29 21:39 | 41.92153 | 101.80373 | 34900 ft | 535 kts | 111° |
| 2026-04-29 21:40 | 41.89661 | 101.89745 | 34893 ft | 535 kts | 112° |
| 2026-04-29 21:40 | 41.87185 | 101.99135 | 34902 ft | 536 kts | 111° |
| 2026-04-29 21:41 | 41.84700 | 102.08551 | 34894 ft | 535 kts | 111° |
| 2026-04-29 21:41 | 41.82243 | 102.17937 | 34891 ft | 536 kts | 111° |
| 2026-04-29 21:42 | 41.79665 | 102.27255 | 34897 ft | 536 kts | 112° |
| 2026-04-29 21:42 | 41.77472 | 102.35053 | 34901 ft | 535 kts | 111° |
| 2026-04-29 21:43 | 41.74504 | 102.45885 | 35024 ft | 535 kts | 111° |
| 2026-04-29 21:43 | 41.71926 | 102.55185 | 34959 ft | 533 kts | 111° |
| 2026-04-29 21:44 | 41.69397 | 102.64475 | 34954 ft | 533 kts | 111° |
| 2026-04-29 21:44 | 41.66826 | 102.73797 | 34939 ft | 533 kts | 112° |
| 2026-04-29 21:45 | 41.64193 | 102.83103 | 34939 ft | 534 kts | 111° |
| 2026-04-29 21:45 | 41.61616 | 102.92366 | 34938 ft | 533 kts | 111° |
| 2026-04-29 21:46 | 41.59021 | 103.01666 | 34940 ft | 533 kts | 111° |
| 2026-04-29 21:46 | 41.56344 | 103.10854 | 34952 ft | 532 kts | 112° |
| 2026-04-29 21:47 | 41.53646 | 103.20042 | 34962 ft | 531 kts | 112° |
| 2026-04-29 21:47 | 41.50978 | 103.29198 | 34958 ft | 531 kts | 111° |
| 2026-04-29 21:48 | 41.48332 | 103.38351 | 34959 ft | 531 kts | 111° |
| 2026-04-29 21:48 | 41.45674 | 103.47548 | 34968 ft | 531 kts | 111° |
| 2026-04-29 21:49 | 41.43041 | 103.56689 | 34968 ft | 530 kts | 111° |
| 2026-04-29 21:49 | 41.40410 | 103.65857 | 34974 ft | 530 kts | 111° |
| 2026-04-29 21:50 | 41.37794 | 103.75017 | 34970 ft | 529 kts | 111° |
| 2026-04-29 21:50 | 41.35179 | 103.84150 | 34973 ft | 529 kts | 111° |
| 2026-04-29 21:51 | 41.32579 | 103.93302 | 34978 ft | 528 kts | 111° |
| 2026-04-29 21:51 | 41.28688 | 104.06930 | 34977 ft | 526 kts | 112° |
| 2026-04-29 21:52 | 41.25955 | 104.15961 | 34987 ft | 527 kts | 112° |
| 2026-04-29 21:52 | 41.23243 | 104.24977 | 34978 ft | 526 kts | 111° |
| 2026-04-29 21:53 | 41.20578 | 104.33958 | 34984 ft | 527 kts | 111° |
| 2026-04-29 21:53 | 41.17878 | 104.43014 | 34982 ft | 526 kts | 111° |
| 2026-04-29 21:54 | 41.15226 | 104.52002 | 34997 ft | 525 kts | 111° |
| 2026-04-29 21:54 | 41.12540 | 104.61059 | 34995 ft | 525 kts | 111° |
| 2026-04-29 21:55 | 41.09901 | 104.70015 | 34997 ft | 524 kts | 112° |
| 2026-04-29 21:55 | 41.06992 | 104.78903 | 35008 ft | 524 kts | 115° |
| 2026-04-29 21:56 | 41.03934 | 104.87605 | 35022 ft | 524 kts | 115° |
| 2026-04-29 21:56 | 41.00870 | 104.96352 | 35029 ft | 523 kts | 115° |
| 2026-04-29 21:57 | 40.97855 | 105.05120 | 35040 ft | 522 kts | 115° |
| 2026-04-29 21:57 | 40.94854 | 105.13799 | 35051 ft | 522 kts | 114° |
| 2026-04-29 21:58 | 40.91838 | 105.22575 | 35049 ft | 522 kts | 114° |
| 2026-04-29 21:58 | 40.88843 | 105.31284 | 35060 ft | 522 kts | 114° |
| 2026-04-29 21:59 | 40.85859 | 105.40009 | 35047 ft | 521 kts | 114° |
| 2026-04-29 21:59 | 40.82896 | 105.48679 | 35053 ft | 522 kts | 114° |
| 2026-04-29 22:00 | 40.79914 | 105.57416 | 35044 ft | 520 kts | 114° |
| 2026-04-29 22:00 | 40.76960 | 105.66109 | 35049 ft | 520 kts | 114° |
| 2026-04-29 22:01 | 40.74008 | 105.74796 | 35054 ft | 519 kts | 114° |
| 2026-04-29 22:01 | 40.70981 | 105.83388 | 35052 ft | 519 kts | 115° |
| 2026-04-29 22:02 | 40.67859 | 105.91962 | 35062 ft | 519 kts | 115° |
| 2026-04-29 22:02 | 40.64778 | 106.00534 | 35072 ft | 517 kts | 115° |
| 2026-04-29 22:03 | 40.61731 | 106.09067 | 35072 ft | 516 kts | 115° |
| 2026-04-29 22:03 | 40.58677 | 106.17612 | 35071 ft | 517 kts | 114° |
| 2026-04-29 22:04 | 40.55653 | 106.26122 | 35078 ft | 516 kts | 114° |
| 2026-04-29 22:04 | 40.52610 | 106.34669 | 35067 ft | 516 kts | 114° |
| 2026-04-29 22:05 | 40.49583 | 106.43232 | 35056 ft | 517 kts | 114° |
| 2026-04-29 22:06 | 40.45050 | 106.56047 | 35053 ft | 516 kts | 114° |
| 2026-04-29 22:06 | 40.42036 | 106.64593 | 35050 ft | 516 kts | 114° |
| 2026-04-29 22:07 | 40.39034 | 106.73115 | 35043 ft | 516 kts | 114° |
| 2026-04-29 22:07 | 40.35987 | 106.81602 | 35049 ft | 517 kts | 115° |
| 2026-04-29 22:08 | 40.32884 | 106.90086 | 35043 ft | 516 kts | 113° |
| 2026-04-29 22:08 | 40.30946 | 106.99014 | 35068 ft | 508 kts | 93° |
| 2026-04-29 22:09 | 40.31315 | 107.08124 | 35078 ft | 498 kts | 73° |
| 2026-04-29 22:09 | 40.33115 | 107.16914 | 35060 ft | 499 kts | 72° |
| 2026-04-29 22:10 | 40.34440 | 107.25810 | 35054 ft | 501 kts | 77° |
| 2026-04-29 22:10 | 40.35466 | 107.34816 | 35054 ft | 501 kts | 77° |
| 2026-04-29 22:11 | 40.36514 | 107.43823 | 35053 ft | 499 kts | 76° |
| 2026-04-29 22:11 | 40.37610 | 107.52789 | 35055 ft | 499 kts | 77° |
| 2026-04-29 22:12 | 40.38693 | 107.61794 | 35057 ft | 499 kts | 76° |
| 2026-04-29 22:12 | 40.39798 | 107.70757 | 35049 ft | 499 kts | 77° |
| 2026-04-29 22:13 | 40.40896 | 107.79775 | 35050 ft | 499 kts | 77° |
| 2026-04-29 22:13 | 40.42016 | 107.88718 | 35018 ft | 499 kts | 76° |
| 2026-04-29 22:14 | 40.43119 | 107.97660 | 35040 ft | 498 kts | 76° |
| 2026-04-29 22:14 | 40.44179 | 108.06662 | 35058 ft | 498 kts | 77° |
| 2026-04-29 22:15 | 40.45129 | 108.15594 | 35058 ft | 498 kts | 77° |
| 2026-04-29 22:15 | 40.46084 | 108.24609 | 35071 ft | 498 kts | 77° |
| 2026-04-29 22:16 | 40.47050 | 108.33588 | 35074 ft | 496 kts | 77° |
| 2026-04-29 22:16 | 40.48026 | 108.42535 | 35076 ft | 496 kts | 77° |
| 2026-04-29 22:17 | 40.48837 | 108.49925 | 35083 ft | 495 kts | 76° |
| 2026-04-29 22:17 | 40.49985 | 108.60329 | 35090 ft | 495 kts | 76° |
| 2026-04-29 22:18 | 40.50982 | 108.69288 | 35088 ft | 494 kts | 77° |
| 2026-04-29 22:18 | 40.51980 | 108.78205 | 35086 ft | 493 kts | 77° |
| 2026-04-29 22:19 | 40.52987 | 108.87100 | 35086 ft | 493 kts | 76° |
| 2026-04-29 22:19 | 40.53998 | 108.95994 | 35091 ft | 492 kts | 76° |
| 2026-04-29 22:20 | 40.55017 | 109.04870 | 35090 ft | 491 kts | 76° |
| 2026-04-29 22:20 | 40.55980 | 109.13775 | 35093 ft | 491 kts | 77° |
| 2026-04-29 22:21 | 40.56830 | 109.22619 | 35105 ft | 490 kts | 77° |
| 2026-04-29 22:21 | 40.57696 | 109.31485 | 35113 ft | 489 kts | 77° |
| 2026-04-29 22:22 | 40.58580 | 109.40292 | 35111 ft | 487 kts | 77° |
| 2026-04-29 22:22 | 40.59475 | 109.49148 | 35117 ft | 486 kts | 77° |
| 2026-04-29 22:23 | 40.60372 | 109.57896 | 35121 ft | 484 kts | 76° |
| 2026-04-29 22:23 | 40.61278 | 109.66727 | 35136 ft | 483 kts | 77° |
| 2026-04-29 22:24 | 40.62185 | 109.75449 | 35136 ft | 482 kts | 77° |
| 2026-04-29 22:24 | 40.63093 | 109.84140 | 35130 ft | 480 kts | 77° |
| 2026-04-29 22:25 | 40.64005 | 109.92857 | 35126 ft | 479 kts | 77° |
| 2026-04-29 22:25 | 40.64614 | 110.01609 | 35134 ft | 483 kts | 83° |
| 2026-04-29 22:26 | 40.64637 | 110.10416 | 35137 ft | 485 kts | 85° |
| 2026-04-29 22:26 | 40.64526 | 110.19281 | 35128 ft | 484 kts | 85° |
| 2026-04-29 22:27 | 40.64482 | 110.28104 | 35138 ft | 483 kts | 85° |
| 2026-04-29 22:27 | 40.64432 | 110.36923 | 35142 ft | 482 kts | 85° |
| 2026-04-29 22:28 | 40.64392 | 110.45739 | 35137 ft | 482 kts | 84° |
| 2026-04-29 22:28 | 40.64371 | 110.54530 | 35129 ft | 480 kts | 85° |
| 2026-04-29 22:29 | 40.64275 | 110.61823 | 35132 ft | 479 kts | 85° |
| 2026-04-29 22:29 | 40.64128 | 110.72035 | 35137 ft | 479 kts | 86° |
| 2026-04-29 22:30 | 40.64014 | 110.80801 | 35139 ft | 478 kts | 86° |
| 2026-04-29 22:30 | 40.63911 | 110.89503 | 35144 ft | 477 kts | 85° |
| 2026-04-29 22:31 | 40.63813 | 110.98192 | 35147 ft | 477 kts | 85° |
| 2026-04-29 22:31 | 40.63720 | 111.06975 | 35146 ft | 478 kts | 85° |
| 2026-04-29 22:32 | 40.63636 | 111.15693 | 35171 ft | 476 kts | 85° |
| 2026-04-29 22:32 | 40.63567 | 111.24348 | 35152 ft | 474 kts | 85° |
| 2026-04-29 22:33 | 40.63420 | 111.32971 | 35162 ft | 474 kts | 86° |
| 2026-04-29 22:33 | 40.63235 | 111.41621 | 35151 ft | 473 kts | 86° |
| 2026-04-29 22:34 | 40.63071 | 111.50290 | 35164 ft | 473 kts | 86° |
| 2026-04-29 22:34 | 40.62911 | 111.58941 | 35155 ft | 473 kts | 86° |
| 2026-04-29 22:35 | 40.62761 | 111.67590 | 35151 ft | 473 kts | 86° |
| 2026-04-29 22:35 | 40.62616 | 111.76228 | 35153 ft | 473 kts | 87° |
| 2026-04-29 22:36 | 40.62483 | 111.84836 | 35153 ft | 471 kts | 87° |
| 2026-04-29 22:36 | 40.62350 | 111.93430 | 35144 ft | 470 kts | 86° |
| 2026-04-29 22:37 | 40.62176 | 112.02029 | 35150 ft | 470 kts | 88° |
| 2026-04-29 22:37 | 40.61961 | 112.10580 | 35159 ft | 469 kts | 87° |
| 2026-04-29 22:38 | 40.61777 | 112.19186 | 35162 ft | 470 kts | 88° |
| 2026-04-29 22:38 | 40.61551 | 112.27765 | 35165 ft | 470 kts | 87° |
| 2026-04-29 22:39 | 40.61362 | 112.36391 | 35169 ft | 469 kts | 88° |
| 2026-04-29 22:39 | 40.61149 | 112.44927 | 35167 ft | 468 kts | 87° |
| 2026-04-29 22:40 | 40.60972 | 112.52074 | 35165 ft | 469 kts | 89° |
| 2026-04-29 22:40 | 40.60373 | 112.62010 | 35168 ft | 469 kts | 90° |
| 2026-04-29 22:41 | 40.59833 | 112.70575 | 35170 ft | 469 kts | 91° |
| 2026-04-29 22:41 | 40.59144 | 112.79134 | 35169 ft | 470 kts | 93° |
| 2026-04-29 22:42 | 40.58499 | 112.87637 | 35169 ft | 469 kts | 91° |
| 2026-04-29 22:42 | 40.57923 | 112.96190 | 35162 ft | 469 kts | 91° |
| 2026-04-29 22:43 | 40.57295 | 113.04721 | 35162 ft | 469 kts | 91° |
| 2026-04-29 22:43 | 40.56670 | 113.13229 | 35139 ft | 469 kts | 91° |
| 2026-04-29 22:44 | 40.56055 | 113.21757 | 35126 ft | 468 kts | 91° |
| 2026-04-29 22:44 | 40.55444 | 113.30264 | 35120 ft | 468 kts | 91° |
| 2026-04-29 22:45 | 40.54841 | 113.38750 | 35130 ft | 468 kts | 91° |
| 2026-04-29 22:45 | 40.54246 | 113.47233 | 35124 ft | 467 kts | 91° |
| 2026-04-29 22:46 | 40.53660 | 113.55740 | 35127 ft | 466 kts | 91° |
| 2026-04-29 22:46 | 40.53077 | 113.64213 | 35125 ft | 466 kts | 91° |
| 2026-04-29 22:47 | 40.52506 | 113.72693 | 35133 ft | 466 kts | 91° |
| 2026-04-29 22:47 | 40.51938 | 113.81150 | 35135 ft | 466 kts | 91° |
| 2026-04-29 22:48 | 40.51380 | 113.89603 | 35131 ft | 467 kts | 91° |
| 2026-04-29 22:48 | 40.50797 | 113.98119 | 35132 ft | 467 kts | 92° |
| 2026-04-29 22:49 | 40.50326 | 114.06557 | 35129 ft | 464 kts | 89° |
| 2026-04-29 22:49 | 40.49975 | 114.15012 | 35120 ft | 463 kts | 90° |
| 2026-04-29 22:50 | 40.49558 | 114.23394 | 35119 ft | 462 kts | 90° |
| 2026-04-29 22:50 | 40.49137 | 114.31824 | 35110 ft | 463 kts | 90° |
| 2026-04-29 22:51 | 40.48729 | 114.40232 | 35104 ft | 463 kts | 90° |
| 2026-04-29 22:51 | 40.48146 | 114.52540 | 35099 ft | 461 kts | 90° |
| 2026-04-29 22:52 | 40.47759 | 114.60890 | 35099 ft | 459 kts | 90° |
| 2026-04-29 22:52 | 40.47378 | 114.69274 | 35106 ft | 459 kts | 90° |
| 2026-04-29 22:53 | 40.47008 | 114.77608 | 35104 ft | 459 kts | 90° |
| 2026-04-29 22:53 | 40.46642 | 114.85976 | 35105 ft | 458 kts | 90° |
| 2026-04-29 22:54 | 40.46284 | 114.94304 | 35103 ft | 457 kts | 90° |
| 2026-04-29 22:54 | 40.45937 | 115.02576 | 35099 ft | 456 kts | 90° |
| 2026-04-29 22:55 | 40.45579 | 115.10912 | 35093 ft | 456 kts | 90° |
| 2026-04-29 22:55 | 40.45117 | 115.19166 | 35089 ft | 456 kts | 91° |
| 2026-04-29 22:56 | 40.44657 | 115.27516 | 35086 ft | 457 kts | 90° |
| 2026-04-29 22:56 | 40.44228 | 115.35801 | 35081 ft | 456 kts | 90° |
| 2026-04-29 22:57 | 40.43788 | 115.44081 | 35078 ft | 456 kts | 90° |
| 2026-04-29 22:57 | 40.43373 | 115.52348 | 35074 ft | 455 kts | 90° |
| 2026-04-29 22:58 | 40.42797 | 115.60613 | 35072 ft | 456 kts | 93° |
| 2026-04-29 22:58 | 40.42015 | 115.68916 | 35073 ft | 457 kts | 94° |
| 2026-04-29 22:59 | 40.41256 | 115.77143 | 35070 ft | 456 kts | 93° |
| 2026-04-29 22:59 | 40.40530 | 115.85416 | 35069 ft | 455 kts | 93° |
| 2026-04-29 23:00 | 40.39798 | 115.93632 | 35063 ft | 455 kts | 93° |
| 2026-04-29 23:00 | 40.39080 | 116.01864 | 35058 ft | 455 kts | 93° |
| 2026-04-29 23:01 | 40.38364 | 116.10113 | 35040 ft | 455 kts | 93° |
| 2026-04-29 23:01 | 40.37660 | 116.18316 | 35023 ft | 454 kts | 92° |
| 2026-04-29 23:02 | 40.36954 | 116.26553 | 35001 ft | 455 kts | 92° |
| 2026-04-29 23:02 | 40.36262 | 116.34800 | 35000 ft | 455 kts | 92° |
| 2026-04-29 23:03 | 40.35566 | 116.43019 | 34994 ft | 455 kts | 92° |
| 2026-04-29 23:03 | 40.34887 | 116.51251 | 34999 ft | 454 kts | 92° |
| 2026-04-29 23:04 | 40.34042 | 116.59405 | 34970 ft | 457 kts | 100° |
| 2026-04-29 23:04 | 40.31490 | 116.67100 | 34995 ft | 468 kts | 120° |
| 2026-04-29 23:05 | 40.27018 | 116.73361 | 34964 ft | 480 kts | 140° |
| 2026-04-29 23:05 | 40.21048 | 116.77399 | 34965 ft | 489 kts | 160° |
| 2026-04-29 23:06 | 40.14335 | 116.78973 | 34982 ft | 495 kts | 171° |
| 2026-04-29 23:06 | 40.07483 | 116.79973 | 35011 ft | 495 kts | 170° |
| 2026-04-29 23:07 | 40.00651 | 116.81265 | 35004 ft | 494 kts | 168° |
| 2026-04-29 23:07 | 39.93855 | 116.82666 | 34974 ft | 496 kts | 168° |
| 2026-04-29 23:08 | 39.87014 | 116.84032 | 34971 ft | 497 kts | 168° |
| 2026-04-29 23:08 | 39.80201 | 116.85393 | 34924 ft | 496 kts | 168° |
| 2026-04-29 23:09 | 39.73379 | 116.86827 | 34956 ft | 496 kts | 168° |
| 2026-04-29 23:09 | 39.66533 | 116.88210 | 34974 ft | 496 kts | 168° |
| 2026-04-29 23:10 | 39.59701 | 116.89616 | 34955 ft | 496 kts | 168° |
| 2026-04-29 23:10 | 39.52891 | 116.90995 | 34944 ft | 497 kts | 168° |
| 2026-04-29 23:11 | 39.46053 | 116.92395 | 34992 ft | 496 kts | 168° |
| 2026-04-29 23:11 | 39.39224 | 116.93790 | 34940 ft | 497 kts | 168° |
| 2026-04-29 23:12 | 39.32388 | 116.95180 | 34944 ft | 497 kts | 168° |
| 2026-04-29 23:12 | 39.25557 | 116.96596 | 34933 ft | 496 kts | 167° |
| 2026-04-29 23:13 | 39.19143 | 116.99490 | 34958 ft | 487 kts | 147° |
| 2026-04-29 23:13 | 39.13934 | 117.04854 | 34979 ft | 477 kts | 127° |
| 2026-04-29 23:14 | 39.10531 | 117.12037 | 34996 ft | 467 kts | 107° |
| 2026-04-29 23:14 | 39.09296 | 117.20074 | 34988 ft | 459 kts | 90° |
| 2026-04-29 23:15 | 39.08914 | 117.28294 | 34986 ft | 463 kts | 93° |
| 2026-04-29 23:15 | 39.08122 | 117.36507 | 34989 ft | 463 kts | 93° |
| 2026-04-29 23:16 | 39.07763 | 117.44771 | 35009 ft | 461 kts | 88° |
| 2026-04-29 23:16 | 39.07679 | 117.52977 | 34993 ft | 461 kts | 88° |
| 2026-04-29 23:17 | 39.07558 | 117.61249 | 34999 ft | 461 kts | 89° |
| 2026-04-29 23:17 | 39.07435 | 117.69495 | 34990 ft | 461 kts | 89° |
| 2026-04-29 23:18 | 39.07320 | 117.77729 | 35008 ft | 461 kts | 89° |
| 2026-04-29 23:18 | 39.07219 | 117.85976 | 34999 ft | 460 kts | 89° |
| 2026-04-29 23:19 | 39.07123 | 117.94212 | 34984 ft | 460 kts | 89° |
| 2026-04-29 23:19 | 39.06867 | 118.02408 | 34992 ft | 462 kts | 94° |
| 2026-04-29 23:20 | 39.05922 | 118.10551 | 34978 ft | 464 kts | 99° |
| 2026-04-29 23:20 | 39.04586 | 118.18685 | 34993 ft | 465 kts | 100° |
| 2026-04-29 23:21 | 39.03265 | 118.26855 | 34981 ft | 464 kts | 99° |
| 2026-04-29 23:21 | 39.01990 | 118.34933 | 34991 ft | 464 kts | 99° |
| 2026-04-29 23:22 | 39.00713 | 118.43037 | 34974 ft | 464 kts | 99° |
| 2026-04-29 23:22 | 38.99423 | 118.51153 | 34982 ft | 465 kts | 99° |
| 2026-04-29 23:23 | 38.98074 | 118.59300 | 34979 ft | 465 kts | 100° |
| 2026-04-29 23:23 | 38.96736 | 118.67358 | 34993 ft | 465 kts | 101° |
| 2026-04-29 23:24 | 38.95406 | 118.75484 | 35002 ft | 465 kts | 101° |
| 2026-04-29 23:24 | 38.94071 | 118.83590 | 35012 ft | 465 kts | 101° |
| 2026-04-29 23:25 | 38.92760 | 118.91682 | 35018 ft | 466 kts | 101° |
| 2026-04-29 23:25 | 38.91429 | 118.99831 | 35005 ft | 467 kts | 101° |
| 2026-04-29 23:26 | 38.90089 | 119.07969 | 35003 ft | 467 kts | 102° |
| 2026-04-29 23:26 | 38.88664 | 119.16103 | 35009 ft | 467 kts | 102° |
| 2026-04-29 23:27 | 38.87254 | 119.24187 | 35012 ft | 466 kts | 102° |
| 2026-04-29 23:27 | 38.85869 | 119.32272 | 35007 ft | 467 kts | 102° |
| 2026-04-29 23:28 | 38.84477 | 119.40394 | 34994 ft | 467 kts | 102° |
| 2026-04-29 23:28 | 38.83099 | 119.48495 | 35012 ft | 468 kts | 102° |
| 2026-04-29 23:29 | 38.81714 | 119.56660 | 35011 ft | 468 kts | 102° |
| 2026-04-29 23:29 | 38.80342 | 119.64793 | 34895 ft | 468 kts | 102° |
| 2026-04-29 23:30 | 38.78963 | 119.72955 | 35004 ft | 472 kts | 103° |
| 2026-04-29 23:30 | 38.77596 | 119.81166 | 34960 ft | 472 kts | 103° |
| 2026-04-29 23:31 | 38.76220 | 119.89352 | 35011 ft | 473 kts | 105° |
| 2026-04-29 23:31 | 38.74020 | 119.97248 | 35009 ft | 471 kts | 118° |
| 2026-04-29 23:32 | 38.70694 | 120.04427 | 35006 ft | 470 kts | 124° |
| 2026-04-29 23:32 | 38.67153 | 120.11431 | 35004 ft | 470 kts | 123° |
| 2026-04-29 23:33 | 38.63693 | 120.18486 | 35004 ft | 471 kts | 122° |
| 2026-04-29 23:33 | 38.60960 | 120.26091 | 35038 ft | 475 kts | 109° |
| 2026-04-29 23:34 | 38.59458 | 120.34310 | 35052 ft | 477 kts | 102° |
| 2026-04-29 23:34 | 38.58198 | 120.42585 | 35035 ft | 477 kts | 103° |
| 2026-04-29 23:35 | 38.56853 | 120.50820 | 35061 ft | 476 kts | 104° |
| 2026-04-29 23:35 | 38.55481 | 120.59094 | 35060 ft | 476 kts | 104° |
| 2026-04-29 23:36 | 38.54107 | 120.67367 | 35044 ft | 476 kts | 104° |
| 2026-04-29 23:36 | 38.52727 | 120.75650 | 35056 ft | 478 kts | 104° |
| 2026-04-29 23:37 | 38.51366 | 120.83906 | 35055 ft | 477 kts | 104° |
| 2026-04-29 23:37 | 38.50008 | 120.92181 | 35046 ft | 478 kts | 104° |
| 2026-04-29 23:38 | 38.48657 | 121.00498 | 35080 ft | 478 kts | 105° |
| 2026-04-29 23:38 | 38.47308 | 121.08781 | 35061 ft | 478 kts | 105° |
| 2026-04-29 23:39 | 38.45972 | 121.17069 | 35061 ft | 479 kts | 105° |
| 2026-04-29 23:39 | 38.44611 | 121.25419 | 35069 ft | 480 kts | 105° |
| 2026-04-29 23:40 | 38.43250 | 121.33725 | 35057 ft | 481 kts | 105° |
| 2026-04-29 23:40 | 38.41907 | 121.42069 | 35094 ft | 481 kts | 104° |
| 2026-04-29 23:41 | 38.40570 | 121.50356 | 35072 ft | 480 kts | 106° |
| 2026-04-29 23:41 | 38.39103 | 121.58684 | 35074 ft | 480 kts | 106° |
| 2026-04-29 23:42 | 38.37663 | 121.66961 | 35088 ft | 482 kts | 107° |
| 2026-04-29 23:42 | 38.36252 | 121.75294 | 35075 ft | 483 kts | 107° |
| 2026-04-29 23:43 | 38.34826 | 121.83666 | 35073 ft | 484 kts | 106° |
| 2026-04-29 23:43 | 38.33423 | 121.91995 | 35080 ft | 484 kts | 106° |
| 2026-04-29 23:44 | 38.32006 | 122.00408 | 35082 ft | 485 kts | 107° |
| 2026-04-29 23:44 | 38.30606 | 122.08765 | 35079 ft | 486 kts | 106° |
| 2026-04-29 23:45 | 38.29216 | 122.17123 | 35082 ft | 486 kts | 107° |
| 2026-04-29 23:45 | 38.27821 | 122.25512 | 35086 ft | 486 kts | 106° |
| 2026-04-29 23:46 | 38.26546 | 122.34010 | 35091 ft | 490 kts | 104° |
| 2026-04-29 23:46 | 38.25146 | 122.42423 | 35061 ft | 483 kts | 115° |
| 2026-04-29 23:47 | 38.21942 | 122.49733 | 35095 ft | 468 kts | 135° |
| 2026-04-29 23:47 | 38.17375 | 122.55512 | 35079 ft | 464 kts | 142° |
| 2026-04-29 23:48 | 38.12709 | 122.61148 | 35076 ft | 466 kts | 140° |
| 2026-04-29 23:48 | 38.08133 | 122.66979 | 35068 ft | 466 kts | 141° |
| 2026-04-29 23:49 | 38.03541 | 122.72764 | 35074 ft | 467 kts | 140° |
| 2026-04-29 23:49 | 37.98986 | 122.78637 | 35071 ft | 468 kts | 140° |
| 2026-04-29 23:50 | 37.94413 | 122.84516 | 35067 ft | 467 kts | 141° |
| 2026-04-29 23:51 | 37.87590 | 122.93328 | 35069 ft | 468 kts | 141° |
| 2026-04-29 23:51 | 37.83034 | 122.99209 | 35070 ft | 469 kts | 140° |
| 2026-04-29 23:52 | 37.78471 | 123.05109 | 35075 ft | 470 kts | 141° |
| 2026-04-29 23:52 | 37.73903 | 123.11015 | 35071 ft | 472 kts | 140° |
| 2026-04-29 23:53 | 37.69320 | 123.16952 | 35072 ft | 472 kts | 141° |
| 2026-04-29 23:53 | 37.64728 | 123.22894 | 35064 ft | 472 kts | 141° |
| 2026-04-29 23:54 | 37.60152 | 123.28826 | 35071 ft | 473 kts | 141° |
| 2026-04-29 23:54 | 37.55733 | 123.34998 | 35058 ft | 478 kts | 136° |
| 2026-04-29 23:55 | 37.51688 | 123.41650 | 35065 ft | 481 kts | 133° |
| 2026-04-29 23:55 | 37.47685 | 123.48384 | 35058 ft | 481 kts | 134° |
| 2026-04-29 23:56 | 37.43656 | 123.55067 | 35061 ft | 482 kts | 134° |
| 2026-04-29 23:56 | 37.39574 | 123.61829 | 35062 ft | 483 kts | 134° |
| 2026-04-29 23:57 | 37.35540 | 123.68557 | 35056 ft | 483 kts | 134° |
| 2026-04-29 23:57 | 37.31495 | 123.75301 | 35059 ft | 483 kts | 134° |
| 2026-04-29 23:58 | 37.27468 | 123.82028 | 35060 ft | 484 kts | 134° |
| 2026-04-29 23:58 | 37.23425 | 123.88783 | 35071 ft | 486 kts | 134° |
| 2026-04-29 23:59 | 37.19436 | 123.95680 | 35044 ft | 492 kts | 128° |
| 2026-04-29 23:59 | 37.16860 | 124.03739 | 35086 ft | 512 kts | 108° |
| 2026-04-30 00:00 | 37.16440 | 124.12719 | 35096 ft | 528 kts | 89° |
| 2026-04-30 00:00 | 37.17340 | 124.21886 | 35081 ft | 531 kts | 88° |
| 2026-04-30 00:01 | 37.17826 | 124.31074 | 35082 ft | 528 kts | 93° |
| 2026-04-30 00:01 | 37.17986 | 124.40224 | 35084 ft | 527 kts | 94° |
| 2026-04-30 00:02 | 37.18138 | 124.49402 | 35081 ft | 527 kts | 94° |
| 2026-04-30 00:02 | 37.18316 | 124.58562 | 35092 ft | 529 kts | 93° |
| 2026-04-30 00:03 | 37.18556 | 124.67786 | 35086 ft | 531 kts | 94° |
| 2026-04-30 00:03 | 37.18767 | 124.76997 | 35084 ft | 531 kts | 94° |
| 2026-04-30 00:04 | 37.19011 | 124.86294 | 35091 ft | 532 kts | 94° |
| 2026-04-30 00:04 | 37.19112 | 124.95561 | 35092 ft | 532 kts | 95° |
| 2026-04-30 00:05 | 37.19228 | 125.04768 | 35095 ft | 534 kts | 94° |
| 2026-04-30 00:05 | 37.19412 | 125.14061 | 35095 ft | 534 kts | 94° |
| 2026-04-30 00:06 | 37.19568 | 125.23341 | 35095 ft | 534 kts | 94° |
| 2026-04-30 00:06 | 37.19760 | 125.32676 | 35097 ft | 535 kts | 94° |
| 2026-04-30 00:07 | 37.19936 | 125.41957 | 35092 ft | 536 kts | 93° |
| 2026-04-30 00:07 | 37.20136 | 125.51287 | 35093 ft | 535 kts | 94° |
| 2026-04-30 00:08 | 37.20215 | 125.60636 | 35339 ft | 537 kts | 95° |
| 2026-04-30 00:08 | 37.20261 | 125.65269 | 35822 ft | 537 kts | 95° |
| 2026-04-30 00:08 | 37.20334 | 125.69958 | 36343 ft | 536 kts | 94° |
| 2026-04-30 00:08 | 37.20418 | 125.74610 | 36821 ft | 536 kts | 95° |
| 2026-04-30 00:09 | 37.20493 | 125.79277 | 37118 ft | 536 kts | 95° |
| 2026-04-30 00:09 | 37.20552 | 125.88576 | 37059 ft | 530 kts | 96° |
| 2026-04-30 00:10 | 37.20575 | 125.97847 | 37081 ft | 533 kts | 95° |
| 2026-04-30 00:10 | 37.20670 | 126.07146 | 37086 ft | 536 kts | 95° |
| 2026-04-30 00:11 | 37.20757 | 126.16486 | 37079 ft | 536 kts | 95° |
| 2026-04-30 00:11 | 37.20865 | 126.25822 | 37083 ft | 538 kts | 95° |
| 2026-04-30 00:12 | 37.20974 | 126.35236 | 37076 ft | 538 kts | 95° |
| 2026-04-30 00:12 | 37.21097 | 126.44618 | 37077 ft | 539 kts | 94° |
| 2026-04-30 00:13 | 37.21158 | 126.54037 | 37077 ft | 539 kts | 96° |
| 2026-04-30 00:13 | 37.21148 | 126.63438 | 37078 ft | 541 kts | 95° |
| 2026-04-30 00:14 | 37.21222 | 126.72867 | 37058 ft | 541 kts | 95° |
| 2026-04-30 00:14 | 37.21287 | 126.82336 | 37055 ft | 542 kts | 95° |
| 2026-04-30 00:15 | 37.21328 | 126.91794 | 37054 ft | 544 kts | 94° |
| 2026-04-30 00:15 | 37.21698 | 126.96562 | 37076 ft | 551 kts | 83° |
| 2026-04-30 00:15 | 37.22662 | 127.01208 | 37096 ft | 557 kts | 73° |
| 2026-04-30 00:16 | 37.26242 | 127.09814 | 37081 ft | 562 kts | 53° |
| 2026-04-30 00:16 | 37.31720 | 127.16810 | 37087 ft | 557 kts | 34° |
| 2026-04-30 00:17 | 37.37796 | 127.22819 | 37053 ft | 560 kts | 40° |
| 2026-04-30 00:17 | 37.43192 | 127.29937 | 37075 ft | 562 kts | 47° |
| 2026-04-30 00:18 | 37.48043 | 127.37608 | 37056 ft | 561 kts | 59° |
| 2026-04-30 00:18 | 37.49859 | 127.41925 | 37081 ft | 559 kts | 70° |
| 2026-04-30 00:18 | 37.51138 | 127.46510 | 37083 ft | 555 kts | 79° |
| 2026-04-30 00:19 | 37.52213 | 127.56010 | 37071 ft | 548 kts | 90° |
| 2026-04-30 00:19 | 37.53159 | 127.65608 | 37050 ft | 554 kts | 84° |
| 2026-04-30 00:20 | 37.54593 | 127.75167 | 37029 ft | 555 kts | 83° |
| 2026-04-30 00:20 | 37.56088 | 127.84679 | 37039 ft | 556 kts | 83° |
| 2026-04-30 00:21 | 37.57610 | 127.94248 | 37044 ft | 557 kts | 83° |
| 2026-04-30 00:21 | 37.59131 | 128.03783 | 37040 ft | 557 kts | 83° |
| 2026-04-30 00:22 | 37.60668 | 128.13376 | 37041 ft | 558 kts | 82° |
| 2026-04-30 00:22 | 37.62141 | 128.22971 | 37044 ft | 558 kts | 83° |
| 2026-04-30 00:23 | 37.63573 | 128.32634 | 37051 ft | 559 kts | 83° |
| 2026-04-30 00:23 | 37.65049 | 128.42213 | 37041 ft | 561 kts | 83° |
| 2026-04-30 00:24 | 37.66538 | 128.51909 | 37046 ft | 562 kts | 83° |
| 2026-04-30 00:24 | 37.68035 | 128.61572 | 37042 ft | 562 kts | 83° |
| 2026-04-30 00:25 | 37.69221 | 128.71291 | 37031 ft | 555 kts | 94° |
| 2026-04-30 00:25 | 37.68486 | 128.80739 | 37065 ft | 534 kts | 114° |
| 2026-04-30 00:25 | 37.67277 | 128.85130 | 37066 ft | 521 kts | 124° |
| 2026-04-30 00:26 | 37.65599 | 128.89075 | 37065 ft | 506 kts | 134° |
| 2026-04-30 00:26 | 37.63517 | 128.92534 | 37059 ft | 492 kts | 143° |
| 2026-04-30 00:26 | 37.61200 | 128.95735 | 37062 ft | 492 kts | 143° |
| 2026-04-30 00:27 | 37.56961 | 129.02704 | 37055 ft | 509 kts | 134° |
| 2026-04-30 00:27 | 37.53249 | 129.10350 | 37055 ft | 514 kts | 131° |
| 2026-04-30 00:28 | 37.49583 | 129.18060 | 37044 ft | 515 kts | 131° |
| 2026-04-30 00:28 | 37.45862 | 129.25774 | 37055 ft | 516 kts | 132° |
| 2026-04-30 00:29 | 37.42092 | 129.33403 | 37053 ft | 511 kts | 134° |
| 2026-04-30 00:29 | 37.38191 | 129.40930 | 37058 ft | 514 kts | 133° |
| 2026-04-30 00:30 | 37.34462 | 129.48547 | 37069 ft | 516 kts | 132° |
| 2026-04-30 00:30 | 37.30726 | 129.56293 | 37081 ft | 518 kts | 132° |
| 2026-04-30 00:31 | 37.27018 | 129.63989 | 37076 ft | 517 kts | 132° |
| 2026-04-30 00:31 | 37.23310 | 129.71704 | 37065 ft | 516 kts | 133° |
| 2026-04-30 00:32 | 37.19625 | 129.79384 | 37067 ft | 518 kts | 132° |
| 2026-04-30 00:32 | 37.15899 | 129.87114 | 37061 ft | 516 kts | 135° |
| 2026-04-30 00:33 | 37.11934 | 129.94542 | 37092 ft | 512 kts | 135° |
| 2026-04-30 00:33 | 37.08082 | 130.02025 | 37081 ft | 516 kts | 133° |
| 2026-04-30 00:34 | 37.04291 | 130.09703 | 37058 ft | 517 kts | 134° |
| 2026-04-30 00:34 | 37.00502 | 130.17316 | 37086 ft | 517 kts | 133° |
| 2026-04-30 00:35 | 36.96744 | 130.24930 | 37208 ft | 516 kts | 134° |
| 2026-04-30 00:35 | 36.94828 | 130.28790 | 36984 ft | 516 kts | 134° |
| 2026-04-30 00:35 | 36.92970 | 130.32550 | 37046 ft | 516 kts | 133° |
| 2026-04-30 00:35 | 36.91076 | 130.36404 | 37180 ft | 518 kts | 133° |
| 2026-04-30 00:36 | 36.89204 | 130.40205 | 37130 ft | 515 kts | 133° |
| 2026-04-30 00:36 | 36.85450 | 130.47795 | 37114 ft | 514 kts | 133° |
| 2026-04-30 00:37 | 36.81726 | 130.55396 | 37115 ft | 517 kts | 133° |
| 2026-04-30 00:37 | 36.77984 | 130.62991 | 37103 ft | 513 kts | 133° |
| 2026-04-30 00:38 | 36.74253 | 130.70512 | 37044 ft | 507 kts | 136° |
| 2026-04-30 00:38 | 36.70255 | 130.77754 | 37083 ft | 507 kts | 137° |
| 2026-04-30 00:39 | 36.66378 | 130.85133 | 37085 ft | 511 kts | 134° |
| 2026-04-30 00:39 | 36.62620 | 130.92622 | 37093 ft | 510 kts | 135° |
| 2026-04-30 00:40 | 36.58846 | 131.00055 | 37081 ft | 506 kts | 135° |
| 2026-04-30 00:40 | 36.55123 | 131.07436 | 37085 ft | 509 kts | 134° |
| 2026-04-30 00:41 | 36.51369 | 131.14868 | 37082 ft | 510 kts | 135° |
| 2026-04-30 00:41 | 36.47613 | 131.22351 | 37071 ft | 507 kts | 135° |
| 2026-04-30 00:42 | 36.43882 | 131.29746 | 37080 ft | 510 kts | 134° |
| 2026-04-30 00:42 | 36.40128 | 131.37253 | 37068 ft | 512 kts | 134° |
| 2026-04-30 00:43 | 36.36364 | 131.44720 | 37079 ft | 507 kts | 136° |
| 2026-04-30 00:43 | 36.32417 | 131.51918 | 37083 ft | 507 kts | 136° |
| 2026-04-30 00:44 | 36.28651 | 131.59334 | 37077 ft | 512 kts | 133° |
| 2026-04-30 00:44 | 36.24985 | 131.66891 | 37081 ft | 514 kts | 134° |
| 2026-04-30 00:45 | 36.21303 | 131.74420 | 37057 ft | 511 kts | 134° |
| 2026-04-30 00:45 | 36.17647 | 131.81957 | 37077 ft | 512 kts | 134° |
| 2026-04-30 00:46 | 36.13996 | 131.89464 | 37083 ft | 511 kts | 134° |
| 2026-04-30 00:46 | 36.10320 | 131.97032 | 37084 ft | 514 kts | 134° |
| 2026-04-30 00:47 | 36.06426 | 132.04257 | 37076 ft | 505 kts | 137° |
| 2026-04-30 00:47 | 36.02546 | 132.11513 | 37097 ft | 510 kts | 135° |
| 2026-04-30 00:48 | 35.98677 | 132.18829 | 37097 ft | 502 kts | 139° |
| 2026-04-30 00:48 | 35.94586 | 132.25751 | 37099 ft | 504 kts | 138° |
| 2026-04-30 00:49 | 35.90581 | 132.32939 | 37103 ft | 511 kts | 136° |
| 2026-04-30 00:49 | 35.86645 | 132.40240 | 37092 ft | 508 kts | 136° |
| 2026-04-30 00:50 | 35.82709 | 132.47447 | 37094 ft | 508 kts | 136° |
| 2026-04-30 00:50 | 35.78809 | 132.54662 | 37095 ft | 508 kts | 135° |
| 2026-04-30 00:51 | 35.74856 | 132.61777 | 37081 ft | 501 kts | 139° |
| 2026-04-30 00:51 | 35.70586 | 132.68495 | 37069 ft | 498 kts | 140° |
| 2026-04-30 00:52 | 35.66505 | 132.75516 | 37072 ft | 508 kts | 136° |
| 2026-04-30 00:52 | 35.62583 | 132.82779 | 37078 ft | 510 kts | 136° |
| 2026-04-30 00:53 | 35.58668 | 132.89973 | 37088 ft | 509 kts | 136° |
| 2026-04-30 00:53 | 35.54734 | 132.97205 | 37089 ft | 508 kts | 136° |
| 2026-04-30 00:53 | 35.52767 | 133.00836 | 36626 ft | 512 kts | 135° |
| 2026-04-30 00:54 | 35.50794 | 133.04466 | 35852 ft | 513 kts | 135° |
| 2026-04-30 00:54 | 35.48815 | 133.08141 | 35166 ft | 510 kts | 135° |
| 2026-04-30 00:54 | 35.46868 | 133.11751 | 34476 ft | 507 kts | 135° |
| 2026-04-30 00:54 | 35.44917 | 133.15343 | 33817 ft | 505 kts | 135° |
| 2026-04-30 00:55 | 35.42959 | 133.18945 | 33176 ft | 507 kts | 134° |
| 2026-04-30 00:55 | 35.41041 | 133.22507 | 32550 ft | 510 kts | 134° |
| 2026-04-30 00:55 | 35.37093 | 133.29831 | 31236 ft | 518 kts | 133° |
| 2026-04-30 00:56 | 35.35096 | 133.33525 | 30554 ft | 521 kts | 132° |
| 2026-04-30 00:56 | 35.33107 | 133.37228 | 29885 ft | 524 kts | 132° |
| 2026-04-30 00:56 | 35.31120 | 133.40916 | 29177 ft | 524 kts | 131° |
| 2026-04-30 00:56 | 35.29126 | 133.44629 | 28507 ft | 522 kts | 131° |
| 2026-04-30 00:57 | 35.27113 | 133.48344 | 27816 ft | 523 kts | 131° |
| 2026-04-30 00:57 | 35.25093 | 133.52084 | 27125 ft | 528 kts | 130° |
| 2026-04-30 00:57 | 35.23054 | 133.55826 | 26445 ft | 531 kts | 131° |
| 2026-04-30 00:57 | 35.20994 | 133.59525 | 25748 ft | 534 kts | 131° |
| 2026-04-30 00:58 | 35.18902 | 133.63284 | 25052 ft | 537 kts | 130° |
| 2026-04-30 00:58 | 35.16819 | 133.67073 | 24316 ft | 535 kts | 130° |
| 2026-04-30 00:58 | 35.14771 | 133.70802 | 23668 ft | 530 kts | 130° |
| 2026-04-30 00:58 | 35.13035 | 133.73938 | 23099 ft | 525 kts | 130° |
| 2026-04-30 00:59 | 35.10981 | 133.77628 | 22444 ft | 521 kts | 129° |
| 2026-04-30 00:59 | 35.08983 | 133.81268 | 21793 ft | 517 kts | 129° |
| 2026-04-30 00:59 | 35.06995 | 133.84904 | 21131 ft | 513 kts | 129° |
| 2026-04-30 00:59 | 35.05002 | 133.88516 | 20462 ft | 508 kts | 129° |
| 2026-04-30 01:00 | 35.03053 | 133.92021 | 19807 ft | 503 kts | 129° |
| 2026-04-30 01:00 | 35.01099 | 133.95567 | 19151 ft | 499 kts | 128° |
| 2026-04-30 01:00 | 34.99189 | 133.99066 | 18489 ft | 495 kts | 128° |
| 2026-04-30 01:00 | 34.97179 | 134.02452 | 17829 ft | 485 kts | 135° |
| 2026-04-30 01:01 | 34.94784 | 134.05144 | 17389 ft | 468 kts | 149° |
| 2026-04-30 01:01 | 34.91945 | 134.07036 | 17120 ft | 453 kts | 163° |
| 2026-04-30 01:01 | 34.89005 | 134.08144 | 16838 ft | 444 kts | 171° |
| 2026-04-30 01:01 | 34.85984 | 134.08987 | 16540 ft | 440 kts | 172° |
| 2026-04-30 01:02 | 34.83002 | 134.09851 | 16256 ft | 438 kts | 171° |
| 2026-04-30 01:02 | 34.80076 | 134.10817 | 15956 ft | 437 kts | 168° |
| 2026-04-30 01:02 | 34.77155 | 134.11896 | 15661 ft | 435 kts | 167° |
| 2026-04-30 01:02 | 34.74293 | 134.12999 | 15359 ft | 434 kts | 167° |
| 2026-04-30 01:03 | 34.71416 | 134.14121 | 15077 ft | 432 kts | 167° |
| 2026-04-30 01:03 | 34.68540 | 134.15228 | 14780 ft | 431 kts | 167° |
| 2026-04-30 01:03 | 34.65680 | 134.16319 | 14458 ft | 429 kts | 167° |
| 2026-04-30 01:03 | 34.62880 | 134.17389 | 14107 ft | 426 kts | 167° |
| 2026-04-30 01:04 | 34.60036 | 134.18480 | 13780 ft | 423 kts | 166° |
| 2026-04-30 01:04 | 34.57260 | 134.19548 | 13471 ft | 420 kts | 166° |
| 2026-04-30 01:04 | 34.54456 | 134.20624 | 13165 ft | 417 kts | 166° |
| 2026-04-30 01:04 | 34.51718 | 134.21670 | 12861 ft | 415 kts | 166° |
| 2026-04-30 01:05 | 34.48965 | 134.22737 | 12575 ft | 413 kts | 166° |
| 2026-04-30 01:05 | 34.46215 | 134.23790 | 12282 ft | 410 kts | 166° |
| 2026-04-30 01:05 | 34.43521 | 134.24821 | 11993 ft | 408 kts | 166° |
| 2026-04-30 01:05 | 34.40803 | 134.25865 | 11709 ft | 402 kts | 166° |
| 2026-04-30 01:06 | 34.38168 | 134.26880 | 11403 ft | 392 kts | 166° |
| 2026-04-30 01:06 | 34.35613 | 134.27858 | 11148 ft | 382 kts | 166° |
| 2026-04-30 01:06 | 34.33163 | 134.29057 | 10790 ft | 379 kts | 154° |
| 2026-04-30 01:06 | 34.31004 | 134.30867 | 10490 ft | 375 kts | 142° |
| 2026-04-30 01:07 | 34.29241 | 134.33104 | 10249 ft | 369 kts | 130° |
| 2026-04-30 01:07 | 34.27845 | 134.35695 | 10019 ft | 364 kts | 121° |
| 2026-04-30 01:07 | 34.26740 | 134.38405 | 9799 ft | 358 kts | 116° |
| 2026-04-30 01:07 | 34.25778 | 134.41130 | 9544 ft | 352 kts | 115° |
| 2026-04-30 01:08 | 34.24870 | 134.43854 | 9251 ft | 347 kts | 111° |
| 2026-04-30 01:08 | 34.24303 | 134.46687 | 8889 ft | 345 kts | 99° |
| 2026-04-30 01:08 | 34.24131 | 134.49539 | 8554 ft | 332 kts | 92° |
| 2026-04-30 01:08 | 34.24157 | 134.52246 | 8321 ft | 317 kts | 90° |
| 2026-04-30 01:09 | 34.24245 | 134.54848 | 8214 ft | 301 kts | 89° |
| 2026-04-30 01:09 | 34.24327 | 134.57329 | 8110 ft | 294 kts | 90° |
| 2026-04-30 01:09 | 34.24392 | 134.59776 | 7935 ft | 289 kts | 90° |
| 2026-04-30 01:09 | 34.24438 | 134.62189 | 7760 ft | 284 kts | 90° |
| 2026-04-30 01:10 | 34.24476 | 134.64534 | 7563 ft | 280 kts | 91° |
| 2026-04-30 01:10 | 34.24515 | 134.66881 | 7321 ft | 278 kts | 91° |
| 2026-04-30 01:10 | 34.24554 | 134.69218 | 7058 ft | 276 kts | 91° |
| 2026-04-30 01:10 | 34.24589 | 134.71533 | 6792 ft | 275 kts | 91° |
| 2026-04-30 01:11 | 34.24625 | 134.73831 | 6519 ft | 275 kts | 91° |
| 2026-04-30 01:11 | 34.24667 | 134.76170 | 6222 ft | 275 kts | 91° |
| 2026-04-30 01:11 | 34.24719 | 134.78467 | 5906 ft | 270 kts | 91° |
| 2026-04-30 01:11 | 34.24767 | 134.80688 | 5637 ft | 264 kts | 91° |
| 2026-04-30 01:12 | 34.24817 | 134.82869 | 5375 ft | 257 kts | 91° |
| 2026-04-30 01:12 | 34.24857 | 134.85005 | 5100 ft | 247 kts | 92° |
| 2026-04-30 01:12 | 34.24895 | 134.87022 | 4790 ft | 238 kts | 91° |
| 2026-04-30 01:12 | 34.24938 | 134.88965 | 4560 ft | 226 kts | 91° |
| 2026-04-30 01:13 | 34.24981 | 134.90820 | 4341 ft | 215 kts | 91° |
| 2026-04-30 01:13 | 34.25021 | 134.92566 | 4140 ft | 204 kts | 91° |
| 2026-04-30 01:13 | 34.25248 | 134.94225 | 3960 ft | 199 kts | 75° |
| 2026-04-30 01:13 | 34.25884 | 134.95709 | 3832 ft | 200 kts | 58° |
| 2026-04-30 01:14 | 34.26761 | 134.97061 | 3632 ft | 204 kts | 52° |
| 2026-04-30 01:14 | 34.27692 | 134.98308 | 3493 ft | 203 kts | 50° |
| 2026-04-30 01:14 | 34.28651 | 134.99567 | 3299 ft | 202 kts | 51° |
| 2026-04-30 01:14 | 34.29571 | 135.00838 | 3125 ft | 199 kts | 52° |
| 2026-04-30 01:15 | 34.30448 | 135.02116 | 2933 ft | 196 kts | 53° |
| 2026-04-30 01:15 | 34.31301 | 135.03400 | 2781 ft | 194 kts | 54° |
| 2026-04-30 01:15 | 34.32123 | 135.04648 | 2597 ft | 183 kts | 54° |
| 2026-04-30 01:15 | 34.32852 | 135.05835 | 2488 ft | 171 kts | 60° |
| 2026-04-30 01:16 | 34.33375 | 135.07109 | 2285 ft | 166 kts | 71° |
| 2026-04-30 01:16 | 34.33710 | 135.08400 | 2030 ft | 160 kts | 75° |
| 2026-04-30 01:16 | 34.33961 | 135.09683 | 1777 ft | 157 kts | 76° |
| 2026-04-30 01:16 | 34.34219 | 135.10939 | 1659 ft | 152 kts | 72° |
| 2026-04-30 01:17 | 34.34659 | 135.12140 | 1653 ft | 158 kts | 59° |
| 2026-04-30 01:17 | 34.35272 | 135.13242 | 1365 ft | 158 kts | 53° |
| 2026-04-30 01:17 | 34.35941 | 135.14269 | 1309 ft | 152 kts | 51° |
| 2026-04-30 01:17 | 34.36615 | 135.15253 | 1305 ft | 154 kts | 50° |
| 2026-04-30 01:18 | 34.37306 | 135.16261 | 1284 ft | 154 kts | 51° |
| 2026-04-30 01:18 | 34.37976 | 135.17256 | 1231 ft | 155 kts | 51° |
| 2026-04-30 01:18 | 34.38646 | 135.18263 | 975 ft | 152 kts | 51° |
| 2026-04-30 01:18 | 34.39300 | 135.19253 | 799 ft | 150 kts | 52° |
| 2026-04-30 01:19 | 34.39961 | 135.20256 | 598 ft | 151 kts | 51° |
| 2026-04-30 01:19 | 34.40611 | 135.21237 | 412 ft | 150 kts | 51° |
| 2026-04-30 01:19 | 34.41273 | 135.22224 | 195 ft | 152 kts | 51° |
| 2026-04-30 01:19 | 34.41938 | 135.23221 | 16 ft | 150 kts | 50° |
| 2026-04-30 01:20 | 34.42504 | 135.24069 | 13 ft | 97 kts | 53° |
| 2026-04-30 01:20 | 34.42806 | 135.24516 | 13 ft | 54 kts | 51° |
| 2026-04-30 01:20 | 34.42983 | 135.24765 | 13 ft | 31 kts | 41° |
| 2026-04-30 01:20 | 34.43130 | 135.24858 | 13 ft | 12 kts | 21° |
| 2026-04-30 01:21 | 34.43206 | 135.24895 | 13 ft | 12 kts | 21° |
| 2026-04-30 01:21 | 34.43290 | 135.24934 | 13 ft | 13 kts | 19° |
| 2026-04-30 01:21 | 34.43376 | 135.24901 | 13 ft | 15 kts | 322° |
| 2026-04-30 01:21 | 34.43435 | 135.24823 | 13 ft | 12 kts | 288° |
| 2026-04-30 01:22 | 34.43471 | 135.24748 | 13 ft | 8 kts | 317° |
| 2026-04-30 01:22 | 34.43496 | 135.24722 | 13 ft | 2 kts | 321° |
| 2026-04-30 01:22 | 34.43498 | 135.24721 | 13 ft | 0 kts | 321° |